<?xml version="1.0" encoding="UTF-8" standalone="no" ?>
<gpx xmlns="http://www.topografix.com/GPX/1/1" xmlns:xsi="http://www.w3.org/2001/XMLSchema-instance" xsi:schemaLocation="http://www.topografix.com/GPX/1/1 http://www.topografix.com/GPX/1/1/gpx.xsd" version="1.1" creator="VisuGPX - https://www.visugpx.com">
  <metadata>
    <name>ST_RAD-Issanchou -15kml</name>
    <desc><![CDATA[sortie par issanchou 15km]]></desc>
  </metadata>
  <trk>
    <name><![CDATA[st RA 14km p+]]></name>
    <trkseg>
      <trkpt lat="44.33568" lon="2.62929">
        <ele>646.1433105</ele>
        <time>2014-04-05T05:59:38Z</time>
      </trkpt>
      <trkpt lat="44.33564" lon="2.62947">
        <ele>646.1433105</ele>
        <time>2014-04-05T05:59:43Z</time>
      </trkpt>
      <trkpt lat="44.33564" lon="2.62963">
        <ele>647.1044922</ele>
        <time>2014-04-05T05:59:46Z</time>
      </trkpt>
      <trkpt lat="44.33565" lon="2.62967">
        <ele>646.6240234</ele>
        <time>2014-04-05T05:59:47Z</time>
      </trkpt>
      <trkpt lat="44.33569" lon="2.62986">
        <ele>647.5852051</ele>
        <time>2014-04-05T05:59:52Z</time>
      </trkpt>
      <trkpt lat="44.33569" lon="2.63004">
        <ele>648.065918</ele>
        <time>2014-04-05T05:59:56Z</time>
      </trkpt>
      <trkpt lat="44.33568" lon="2.63013">
        <ele>649.0270996</ele>
        <time>2014-04-05T05:59:58Z</time>
      </trkpt>
      <trkpt lat="44.33572" lon="2.63031">
        <ele>646.6240234</ele>
        <time>2014-04-05T06:00:04Z</time>
      </trkpt>
      <trkpt lat="44.33568" lon="2.63038">
        <ele>644.2207031</ele>
        <time>2014-04-05T06:00:07Z</time>
      </trkpt>
      <trkpt lat="44.33563" lon="2.63046">
        <ele>643.7399902</ele>
        <time>2014-04-05T06:00:10Z</time>
      </trkpt>
      <trkpt lat="44.33564" lon="2.63055">
        <ele>640.3754883</ele>
        <time>2014-04-05T06:00:13Z</time>
      </trkpt>
      <trkpt lat="44.33562" lon="2.63075">
        <ele>638.9335938</ele>
        <time>2014-04-05T06:00:18Z</time>
      </trkpt>
      <trkpt lat="44.33562" lon="2.6308">
        <ele>639.4140625</ele>
        <time>2014-04-05T06:00:19Z</time>
      </trkpt>
      <trkpt lat="44.3356" lon="2.63093">
        <ele>639.4140625</ele>
        <time>2014-04-05T06:00:23Z</time>
      </trkpt>
      <trkpt lat="44.33554" lon="2.63109">
        <ele>636.5302734</ele>
        <time>2014-04-05T06:00:27Z</time>
      </trkpt>
      <trkpt lat="44.33547" lon="2.63125">
        <ele>637.4914551</ele>
        <time>2014-04-05T06:00:31Z</time>
      </trkpt>
      <trkpt lat="44.33545" lon="2.63128">
        <ele>636.5302734</ele>
        <time>2014-04-05T06:00:32Z</time>
      </trkpt>
      <trkpt lat="44.33532" lon="2.63151">
        <ele>637.0107422</ele>
        <time>2014-04-05T06:00:38Z</time>
      </trkpt>
      <trkpt lat="44.33528" lon="2.63165">
        <ele>637.4914551</ele>
        <time>2014-04-05T06:00:42Z</time>
      </trkpt>
      <trkpt lat="44.33523" lon="2.63182">
        <ele>638.4528809</ele>
        <time>2014-04-05T06:00:47Z</time>
      </trkpt>
      <trkpt lat="44.33521" lon="2.63196">
        <ele>639.8947754</ele>
        <time>2014-04-05T06:00:51Z</time>
      </trkpt>
      <trkpt lat="44.33517" lon="2.63216">
        <ele>642.2980957</ele>
        <time>2014-04-05T06:00:56Z</time>
      </trkpt>
      <trkpt lat="44.33513" lon="2.63239">
        <ele>643.7399902</ele>
        <time>2014-04-05T06:01:02Z</time>
      </trkpt>
      <trkpt lat="44.33504" lon="2.63263">
        <ele>641.3366699</ele>
        <time>2014-04-05T06:01:08Z</time>
      </trkpt>
      <trkpt lat="44.33496" lon="2.63288">
        <ele>642.2980957</ele>
        <time>2014-04-05T06:01:14Z</time>
      </trkpt>
      <trkpt lat="44.33493" lon="2.63307">
        <ele>642.7788086</ele>
        <time>2014-04-05T06:01:19Z</time>
      </trkpt>
      <trkpt lat="44.33488" lon="2.63325">
        <ele>641.8173828</ele>
        <time>2014-04-05T06:01:24Z</time>
      </trkpt>
      <trkpt lat="44.33485" lon="2.63343">
        <ele>640.3754883</ele>
        <time>2014-04-05T06:01:29Z</time>
      </trkpt>
      <trkpt lat="44.33481" lon="2.63361">
        <ele>637.972168</ele>
        <time>2014-04-05T06:01:34Z</time>
      </trkpt>
      <trkpt lat="44.3348" lon="2.63375">
        <ele>636.0495605</ele>
        <time>2014-04-05T06:01:38Z</time>
      </trkpt>
      <trkpt lat="44.33479" lon="2.63399">
        <ele>637.4914551</ele>
        <time>2014-04-05T06:01:44Z</time>
      </trkpt>
      <trkpt lat="44.33479" lon="2.6342">
        <ele>639.4140625</ele>
        <time>2014-04-05T06:01:49Z</time>
      </trkpt>
      <trkpt lat="44.33478" lon="2.63439">
        <ele>639.4140625</ele>
        <time>2014-04-05T06:01:54Z</time>
      </trkpt>
      <trkpt lat="44.33472" lon="2.63458">
        <ele>638.4528809</ele>
        <time>2014-04-05T06:01:59Z</time>
      </trkpt>
      <trkpt lat="44.33466" lon="2.63477">
        <ele>636.5302734</ele>
        <time>2014-04-05T06:02:05Z</time>
      </trkpt>
      <trkpt lat="44.33459" lon="2.63495">
        <ele>632.6848145</ele>
        <time>2014-04-05T06:02:11Z</time>
      </trkpt>
      <trkpt lat="44.33452" lon="2.63516">
        <ele>631.2429199</ele>
        <time>2014-04-05T06:02:17Z</time>
      </trkpt>
      <trkpt lat="44.33448" lon="2.63534">
        <ele>629.8007813</ele>
        <time>2014-04-05T06:02:22Z</time>
      </trkpt>
      <trkpt lat="44.33447" lon="2.63554">
        <ele>628.8395996</ele>
        <time>2014-04-05T06:02:27Z</time>
      </trkpt>
      <trkpt lat="44.3344" lon="2.63574">
        <ele>626.9169922</ele>
        <time>2014-04-05T06:02:33Z</time>
      </trkpt>
      <trkpt lat="44.33433" lon="2.63586">
        <ele>627.8781738</ele>
        <time>2014-04-05T06:02:38Z</time>
      </trkpt>
      <trkpt lat="44.33426" lon="2.63595">
        <ele>628.3588867</ele>
        <time>2014-04-05T06:02:42Z</time>
      </trkpt>
      <trkpt lat="44.33416" lon="2.63608">
        <ele>629.3200684</ele>
        <time>2014-04-05T06:02:48Z</time>
      </trkpt>
      <trkpt lat="44.33407" lon="2.63617">
        <ele>630.2814941</ele>
        <time>2014-04-05T06:02:53Z</time>
      </trkpt>
      <trkpt lat="44.33398" lon="2.6363">
        <ele>631.7233887</ele>
        <time>2014-04-05T06:02:59Z</time>
      </trkpt>
      <trkpt lat="44.33393" lon="2.63636">
        <ele>634.126709</ele>
        <time>2014-04-05T06:03:03Z</time>
      </trkpt>
      <trkpt lat="44.33385" lon="2.63649">
        <ele>638.4528809</ele>
        <time>2014-04-05T06:03:08Z</time>
      </trkpt>
      <trkpt lat="44.33381" lon="2.63657">
        <ele>640.3754883</ele>
        <time>2014-04-05T06:03:12Z</time>
      </trkpt>
      <trkpt lat="44.33374" lon="2.6367">
        <ele>642.2980957</ele>
        <time>2014-04-05T06:03:18Z</time>
      </trkpt>
      <trkpt lat="44.33364" lon="2.63686">
        <ele>643.7399902</ele>
        <time>2014-04-05T06:03:25Z</time>
      </trkpt>
      <trkpt lat="44.33356" lon="2.63705">
        <ele>645.1818848</ele>
        <time>2014-04-05T06:03:33Z</time>
      </trkpt>
      <trkpt lat="44.33352" lon="2.63716">
        <ele>645.1818848</ele>
        <time>2014-04-05T06:03:38Z</time>
      </trkpt>
      <trkpt lat="44.33348" lon="2.6373">
        <ele>646.1433105</ele>
        <time>2014-04-05T06:03:43Z</time>
      </trkpt>
      <trkpt lat="44.33344" lon="2.63746">
        <ele>646.6240234</ele>
        <time>2014-04-05T06:03:49Z</time>
      </trkpt>
      <trkpt lat="44.3334" lon="2.63763">
        <ele>648.5463867</ele>
        <time>2014-04-05T06:03:55Z</time>
      </trkpt>
      <trkpt lat="44.33337" lon="2.63776">
        <ele>649.5078125</ele>
        <time>2014-04-05T06:04:00Z</time>
      </trkpt>
      <trkpt lat="44.33333" lon="2.63788">
        <ele>649.9885254</ele>
        <time>2014-04-05T06:04:05Z</time>
      </trkpt>
      <trkpt lat="44.33328" lon="2.63805">
        <ele>651.4304199</ele>
        <time>2014-04-05T06:04:11Z</time>
      </trkpt>
      <trkpt lat="44.33323" lon="2.63819">
        <ele>651.4304199</ele>
        <time>2014-04-05T06:04:16Z</time>
      </trkpt>
      <trkpt lat="44.3332" lon="2.63835">
        <ele>651.9111328</ele>
        <time>2014-04-05T06:04:22Z</time>
      </trkpt>
      <trkpt lat="44.33316" lon="2.63852">
        <ele>651.9111328</ele>
        <time>2014-04-05T06:04:28Z</time>
      </trkpt>
      <trkpt lat="44.33313" lon="2.63865">
        <ele>651.9111328</ele>
        <time>2014-04-05T06:04:33Z</time>
      </trkpt>
      <trkpt lat="44.33309" lon="2.63881">
        <ele>652.3918457</ele>
        <time>2014-04-05T06:04:39Z</time>
      </trkpt>
      <trkpt lat="44.33305" lon="2.63898">
        <ele>653.8339844</ele>
        <time>2014-04-05T06:04:45Z</time>
      </trkpt>
      <trkpt lat="44.33301" lon="2.63916">
        <ele>655.2758789</ele>
        <time>2014-04-05T06:04:51Z</time>
      </trkpt>
      <trkpt lat="44.33298" lon="2.63934">
        <ele>656.2370605</ele>
        <time>2014-04-05T06:04:57Z</time>
      </trkpt>
      <trkpt lat="44.33296" lon="2.63954">
        <ele>657.1984863</ele>
        <time>2014-04-05T06:05:03Z</time>
      </trkpt>
      <trkpt lat="44.33292" lon="2.6398">
        <ele>658.1599121</ele>
        <time>2014-04-05T06:05:11Z</time>
      </trkpt>
      <trkpt lat="44.33287" lon="2.64006">
        <ele>658.6403809</ele>
        <time>2014-04-05T06:05:19Z</time>
      </trkpt>
      <trkpt lat="44.33282" lon="2.64024">
        <ele>658.6403809</ele>
        <time>2014-04-05T06:05:25Z</time>
      </trkpt>
      <trkpt lat="44.33279" lon="2.6404">
        <ele>659.6018066</ele>
        <time>2014-04-05T06:05:30Z</time>
      </trkpt>
      <trkpt lat="44.33278" lon="2.64057">
        <ele>661.0437012</ele>
        <time>2014-04-05T06:05:35Z</time>
      </trkpt>
      <trkpt lat="44.33276" lon="2.64079">
        <ele>662.4855957</ele>
        <time>2014-04-05T06:05:41Z</time>
      </trkpt>
      <trkpt lat="44.33272" lon="2.64099">
        <ele>663.4470215</ele>
        <time>2014-04-05T06:05:47Z</time>
      </trkpt>
      <trkpt lat="44.33268" lon="2.64118">
        <ele>663.9274902</ele>
        <time>2014-04-05T06:05:53Z</time>
      </trkpt>
      <trkpt lat="44.33264" lon="2.64137">
        <ele>664.4082031</ele>
        <time>2014-04-05T06:05:59Z</time>
      </trkpt>
      <trkpt lat="44.33261" lon="2.6415">
        <ele>664.4082031</ele>
        <time>2014-04-05T06:06:03Z</time>
      </trkpt>
      <trkpt lat="44.33258" lon="2.64169">
        <ele>666.3308105</ele>
        <time>2014-04-05T06:06:09Z</time>
      </trkpt>
      <trkpt lat="44.33255" lon="2.64182">
        <ele>667.2922363</ele>
        <time>2014-04-05T06:06:13Z</time>
      </trkpt>
      <trkpt lat="44.33249" lon="2.642">
        <ele>668.734375</ele>
        <time>2014-04-05T06:06:18Z</time>
      </trkpt>
      <trkpt lat="44.33243" lon="2.64218">
        <ele>669.6958008</ele>
        <time>2014-04-05T06:06:24Z</time>
      </trkpt>
      <trkpt lat="44.33235" lon="2.6424">
        <ele>671.6181641</ele>
        <time>2014-04-05T06:06:31Z</time>
      </trkpt>
      <trkpt lat="44.33228" lon="2.64258">
        <ele>673.5410156</ele>
        <time>2014-04-05T06:06:37Z</time>
      </trkpt>
      <trkpt lat="44.33218" lon="2.64282">
        <ele>673.0603027</ele>
        <time>2014-04-05T06:06:45Z</time>
      </trkpt>
      <trkpt lat="44.33209" lon="2.64304">
        <ele>673.0603027</ele>
        <time>2014-04-05T06:06:52Z</time>
      </trkpt>
      <trkpt lat="44.33201" lon="2.64322">
        <ele>672.5795898</ele>
        <time>2014-04-05T06:06:58Z</time>
      </trkpt>
      <trkpt lat="44.33192" lon="2.64343">
        <ele>671.1376953</ele>
        <time>2014-04-05T06:07:05Z</time>
      </trkpt>
      <trkpt lat="44.33187" lon="2.64357">
        <ele>671.1376953</ele>
        <time>2014-04-05T06:07:10Z</time>
      </trkpt>
      <trkpt lat="44.33179" lon="2.64377">
        <ele>670.6569824</ele>
        <time>2014-04-05T06:07:16Z</time>
      </trkpt>
      <trkpt lat="44.33174" lon="2.64394">
        <ele>670.6569824</ele>
        <time>2014-04-05T06:07:21Z</time>
      </trkpt>
      <trkpt lat="44.33167" lon="2.6442">
        <ele>671.1376953</ele>
        <time>2014-04-05T06:07:28Z</time>
      </trkpt>
      <trkpt lat="44.33162" lon="2.64443">
        <ele>671.1376953</ele>
        <time>2014-04-05T06:07:34Z</time>
      </trkpt>
      <trkpt lat="44.33157" lon="2.64465">
        <ele>671.6181641</ele>
        <time>2014-04-05T06:07:40Z</time>
      </trkpt>
      <trkpt lat="44.33149" lon="2.64484">
        <ele>671.6181641</ele>
        <time>2014-04-05T06:07:46Z</time>
      </trkpt>
      <trkpt lat="44.33137" lon="2.64514">
        <ele>673.0603027</ele>
        <time>2014-04-05T06:07:55Z</time>
      </trkpt>
      <trkpt lat="44.3313" lon="2.64533">
        <ele>672.5795898</ele>
        <time>2014-04-05T06:08:01Z</time>
      </trkpt>
      <trkpt lat="44.33121" lon="2.64559">
        <ele>672.5795898</ele>
        <time>2014-04-05T06:08:09Z</time>
      </trkpt>
      <trkpt lat="44.33111" lon="2.64578">
        <ele>672.5795898</ele>
        <time>2014-04-05T06:08:15Z</time>
      </trkpt>
      <trkpt lat="44.33105" lon="2.64595">
        <ele>672.098877</ele>
        <time>2014-04-05T06:08:20Z</time>
      </trkpt>
      <trkpt lat="44.33103" lon="2.64619">
        <ele>672.5795898</ele>
        <time>2014-04-05T06:08:26Z</time>
      </trkpt>
      <trkpt lat="44.33099" lon="2.64646">
        <ele>673.0603027</ele>
        <time>2014-04-05T06:08:33Z</time>
      </trkpt>
      <trkpt lat="44.33095" lon="2.64669">
        <ele>672.098877</ele>
        <time>2014-04-05T06:08:39Z</time>
      </trkpt>
      <trkpt lat="44.33091" lon="2.64696">
        <ele>671.6181641</ele>
        <time>2014-04-05T06:08:46Z</time>
      </trkpt>
      <trkpt lat="44.33083" lon="2.64726">
        <ele>671.1376953</ele>
        <time>2014-04-05T06:08:54Z</time>
      </trkpt>
      <trkpt lat="44.33077" lon="2.64753">
        <ele>670.1762695</ele>
        <time>2014-04-05T06:09:01Z</time>
      </trkpt>
      <trkpt lat="44.33074" lon="2.64773">
        <ele>669.2150879</ele>
        <time>2014-04-05T06:09:06Z</time>
      </trkpt>
      <trkpt lat="44.33073" lon="2.64802">
        <ele>667.7727051</ele>
        <time>2014-04-05T06:09:13Z</time>
      </trkpt>
      <trkpt lat="44.3307" lon="2.64826">
        <ele>665.8503418</ele>
        <time>2014-04-05T06:09:19Z</time>
      </trkpt>
      <trkpt lat="44.33067" lon="2.64841">
        <ele>663.4470215</ele>
        <time>2014-04-05T06:09:23Z</time>
      </trkpt>
      <trkpt lat="44.33066" lon="2.64841">
        <ele>662.4855957</ele>
        <time>2014-04-05T06:09:34Z</time>
      </trkpt>
      <trkpt lat="44.33066" lon="2.6484">
        <ele>664.4082031</ele>
        <time>2014-04-05T06:09:47Z</time>
      </trkpt>
      <trkpt lat="44.33066" lon="2.64842">
        <ele>663.9274902</ele>
        <time>2014-04-05T06:09:51Z</time>
      </trkpt>
      <trkpt lat="44.3306" lon="2.64862">
        <ele>661.5244141</ele>
        <time>2014-04-05T06:09:57Z</time>
      </trkpt>
      <trkpt lat="44.33055" lon="2.64885">
        <ele>658.6403809</ele>
        <time>2014-04-05T06:10:02Z</time>
      </trkpt>
      <trkpt lat="44.33054" lon="2.64907">
        <ele>655.2758789</ele>
        <time>2014-04-05T06:10:07Z</time>
      </trkpt>
      <trkpt lat="44.33052" lon="2.64928">
        <ele>652.3918457</ele>
        <time>2014-04-05T06:10:12Z</time>
      </trkpt>
      <trkpt lat="44.3305" lon="2.64948">
        <ele>649.9885254</ele>
        <time>2014-04-05T06:10:17Z</time>
      </trkpt>
      <trkpt lat="44.33046" lon="2.64975">
        <ele>648.065918</ele>
        <time>2014-04-05T06:10:24Z</time>
      </trkpt>
      <trkpt lat="44.33045" lon="2.64993">
        <ele>647.5852051</ele>
        <time>2014-04-05T06:10:29Z</time>
      </trkpt>
      <trkpt lat="44.33045" lon="2.6501">
        <ele>648.5463867</ele>
        <time>2014-04-05T06:10:34Z</time>
      </trkpt>
      <trkpt lat="44.33039" lon="2.65032">
        <ele>648.5463867</ele>
        <time>2014-04-05T06:10:40Z</time>
      </trkpt>
      <trkpt lat="44.33037" lon="2.65042">
        <ele>648.5463867</ele>
        <time>2014-04-05T06:10:43Z</time>
      </trkpt>
      <trkpt lat="44.33032" lon="2.65053">
        <ele>648.5463867</ele>
        <time>2014-04-05T06:10:49Z</time>
      </trkpt>
      <trkpt lat="44.3303" lon="2.65057">
        <ele>649.0270996</ele>
        <time>2014-04-05T06:10:50Z</time>
      </trkpt>
      <trkpt lat="44.33022" lon="2.65073">
        <ele>650.949707</ele>
        <time>2014-04-05T06:10:56Z</time>
      </trkpt>
      <trkpt lat="44.33014" lon="2.65085">
        <ele>650.4692383</ele>
        <time>2014-04-05T06:11:01Z</time>
      </trkpt>
      <trkpt lat="44.3301" lon="2.65089">
        <ele>650.949707</ele>
        <time>2014-04-05T06:11:03Z</time>
      </trkpt>
      <trkpt lat="44.32998" lon="2.65093">
        <ele>651.4304199</ele>
        <time>2014-04-05T06:11:08Z</time>
      </trkpt>
      <trkpt lat="44.3299" lon="2.65103">
        <ele>652.3918457</ele>
        <time>2014-04-05T06:11:13Z</time>
      </trkpt>
      <trkpt lat="44.32983" lon="2.65111">
        <ele>653.8339844</ele>
        <time>2014-04-05T06:11:17Z</time>
      </trkpt>
      <trkpt lat="44.32974" lon="2.65125">
        <ele>653.8339844</ele>
        <time>2014-04-05T06:11:23Z</time>
      </trkpt>
      <trkpt lat="44.32965" lon="2.65135">
        <ele>654.3146973</ele>
        <time>2014-04-05T06:11:28Z</time>
      </trkpt>
      <trkpt lat="44.32958" lon="2.65146">
        <ele>654.3146973</ele>
        <time>2014-04-05T06:11:32Z</time>
      </trkpt>
      <trkpt lat="44.32949" lon="2.65158">
        <ele>655.2758789</ele>
        <time>2014-04-05T06:11:37Z</time>
      </trkpt>
      <trkpt lat="44.32947" lon="2.6516">
        <ele>655.2758789</ele>
        <time>2014-04-05T06:11:38Z</time>
      </trkpt>
      <trkpt lat="44.32935" lon="2.65164">
        <ele>655.7565918</ele>
        <time>2014-04-05T06:11:44Z</time>
      </trkpt>
      <trkpt lat="44.32933" lon="2.65165">
        <ele>655.7565918</ele>
        <time>2014-04-05T06:11:45Z</time>
      </trkpt>
      <trkpt lat="44.32923" lon="2.65181">
        <ele>656.2370605</ele>
        <time>2014-04-05T06:11:52Z</time>
      </trkpt>
      <trkpt lat="44.32915" lon="2.65198">
        <ele>656.7177734</ele>
        <time>2014-04-05T06:11:58Z</time>
      </trkpt>
      <trkpt lat="44.32909" lon="2.6521">
        <ele>657.6791992</ele>
        <time>2014-04-05T06:12:03Z</time>
      </trkpt>
      <trkpt lat="44.32903" lon="2.65223">
        <ele>657.6791992</ele>
        <time>2014-04-05T06:12:08Z</time>
      </trkpt>
      <trkpt lat="44.32901" lon="2.65225">
        <ele>657.6791992</ele>
        <time>2014-04-05T06:12:09Z</time>
      </trkpt>
      <trkpt lat="44.32893" lon="2.65244">
        <ele>657.1984863</ele>
        <time>2014-04-05T06:12:16Z</time>
      </trkpt>
      <trkpt lat="44.32889" lon="2.65264">
        <ele>660.5629883</ele>
        <time>2014-04-05T06:12:21Z</time>
      </trkpt>
      <trkpt lat="44.32888" lon="2.65282">
        <ele>662.9663086</ele>
        <time>2014-04-05T06:12:26Z</time>
      </trkpt>
      <trkpt lat="44.32886" lon="2.65302">
        <ele>664.4082031</ele>
        <time>2014-04-05T06:12:32Z</time>
      </trkpt>
      <trkpt lat="44.32884" lon="2.6532">
        <ele>665.3696289</ele>
        <time>2014-04-05T06:12:37Z</time>
      </trkpt>
      <trkpt lat="44.32882" lon="2.65336">
        <ele>666.3308105</ele>
        <time>2014-04-05T06:12:42Z</time>
      </trkpt>
      <trkpt lat="44.3288" lon="2.65361">
        <ele>667.7727051</ele>
        <time>2014-04-05T06:12:49Z</time>
      </trkpt>
      <trkpt lat="44.32878" lon="2.6538">
        <ele>668.2536621</ele>
        <time>2014-04-05T06:12:54Z</time>
      </trkpt>
      <trkpt lat="44.32879" lon="2.65405">
        <ele>669.2150879</ele>
        <time>2014-04-05T06:13:01Z</time>
      </trkpt>
      <trkpt lat="44.32881" lon="2.65426">
        <ele>669.6958008</ele>
        <time>2014-04-05T06:13:07Z</time>
      </trkpt>
      <trkpt lat="44.32885" lon="2.65444">
        <ele>670.1762695</ele>
        <time>2014-04-05T06:13:12Z</time>
      </trkpt>
      <trkpt lat="44.32893" lon="2.65455">
        <ele>670.6569824</ele>
        <time>2014-04-05T06:13:17Z</time>
      </trkpt>
      <trkpt lat="44.32906" lon="2.65467">
        <ele>671.6181641</ele>
        <time>2014-04-05T06:13:23Z</time>
      </trkpt>
      <trkpt lat="44.32913" lon="2.65476">
        <ele>671.1376953</ele>
        <time>2014-04-05T06:13:27Z</time>
      </trkpt>
      <trkpt lat="44.32921" lon="2.6549">
        <ele>671.1376953</ele>
        <time>2014-04-05T06:13:32Z</time>
      </trkpt>
      <trkpt lat="44.32922" lon="2.65493">
        <ele>671.1376953</ele>
        <time>2014-04-05T06:13:33Z</time>
      </trkpt>
      <trkpt lat="44.32923" lon="2.6551">
        <ele>671.1376953</ele>
        <time>2014-04-05T06:13:38Z</time>
      </trkpt>
      <trkpt lat="44.3292" lon="2.65529">
        <ele>672.098877</ele>
        <time>2014-04-05T06:13:44Z</time>
      </trkpt>
      <trkpt lat="44.32919" lon="2.65538">
        <ele>672.5795898</ele>
        <time>2014-04-05T06:13:47Z</time>
      </trkpt>
      <trkpt lat="44.32916" lon="2.6555">
        <ele>673.0603027</ele>
        <time>2014-04-05T06:13:51Z</time>
      </trkpt>
      <trkpt lat="44.32912" lon="2.65569">
        <ele>674.9829102</ele>
        <time>2014-04-05T06:13:58Z</time>
      </trkpt>
      <trkpt lat="44.32907" lon="2.65587">
        <ele>676.4248047</ele>
        <time>2014-04-05T06:14:04Z</time>
      </trkpt>
      <trkpt lat="44.329" lon="2.65602">
        <ele>678.828125</ele>
        <time>2014-04-05T06:14:09Z</time>
      </trkpt>
      <trkpt lat="44.3289" lon="2.65615">
        <ele>680.2700195</ele>
        <time>2014-04-05T06:14:14Z</time>
      </trkpt>
      <trkpt lat="44.32885" lon="2.65628">
        <ele>680.7507324</ele>
        <time>2014-04-05T06:14:19Z</time>
      </trkpt>
      <trkpt lat="44.32887" lon="2.65641">
        <ele>681.2314453</ele>
        <time>2014-04-05T06:14:24Z</time>
      </trkpt>
      <trkpt lat="44.32889" lon="2.6565">
        <ele>681.2314453</ele>
        <time>2014-04-05T06:14:27Z</time>
      </trkpt>
      <trkpt lat="44.32893" lon="2.65664">
        <ele>681.2314453</ele>
        <time>2014-04-05T06:14:32Z</time>
      </trkpt>
      <trkpt lat="44.32896" lon="2.6568">
        <ele>682.192627</ele>
        <time>2014-04-05T06:14:37Z</time>
      </trkpt>
      <trkpt lat="44.32902" lon="2.65695">
        <ele>682.6733398</ele>
        <time>2014-04-05T06:14:42Z</time>
      </trkpt>
      <trkpt lat="44.32905" lon="2.65699">
        <ele>683.6345215</ele>
        <time>2014-04-05T06:14:44Z</time>
      </trkpt>
      <trkpt lat="44.32911" lon="2.65709">
        <ele>685.557373</ele>
        <time>2014-04-05T06:14:48Z</time>
      </trkpt>
      <trkpt lat="44.32925" lon="2.65721">
        <ele>687.9606934</ele>
        <time>2014-04-05T06:14:55Z</time>
      </trkpt>
      <trkpt lat="44.32935" lon="2.65729">
        <ele>687.9606934</ele>
        <time>2014-04-05T06:15:00Z</time>
      </trkpt>
      <trkpt lat="44.32945" lon="2.65735">
        <ele>686.5187988</ele>
        <time>2014-04-05T06:15:05Z</time>
      </trkpt>
      <trkpt lat="44.32955" lon="2.65739">
        <ele>687.9606934</ele>
        <time>2014-04-05T06:15:09Z</time>
      </trkpt>
      <trkpt lat="44.32968" lon="2.65744">
        <ele>689.4025879</ele>
        <time>2014-04-05T06:15:14Z</time>
      </trkpt>
      <trkpt lat="44.32978" lon="2.65749">
        <ele>690.8444824</ele>
        <time>2014-04-05T06:15:18Z</time>
      </trkpt>
      <trkpt lat="44.3299" lon="2.65759">
        <ele>691.3251953</ele>
        <time>2014-04-05T06:15:24Z</time>
      </trkpt>
      <trkpt lat="44.33003" lon="2.65768">
        <ele>691.8059082</ele>
        <time>2014-04-05T06:15:29Z</time>
      </trkpt>
      <trkpt lat="44.33015" lon="2.65774">
        <ele>691.8059082</ele>
        <time>2014-04-05T06:15:34Z</time>
      </trkpt>
      <trkpt lat="44.33028" lon="2.65779">
        <ele>691.8059082</ele>
        <time>2014-04-05T06:15:39Z</time>
      </trkpt>
      <trkpt lat="44.33039" lon="2.65789">
        <ele>691.8059082</ele>
        <time>2014-04-05T06:15:44Z</time>
      </trkpt>
      <trkpt lat="44.33043" lon="2.65803">
        <ele>692.2866211</ele>
        <time>2014-04-05T06:15:49Z</time>
      </trkpt>
      <trkpt lat="44.33047" lon="2.65818">
        <ele>697.0930176</ele>
        <time>2014-04-05T06:15:55Z</time>
      </trkpt>
      <trkpt lat="44.33052" lon="2.65831">
        <ele>699.4963379</ele>
        <time>2014-04-05T06:16:00Z</time>
      </trkpt>
      <trkpt lat="44.33053" lon="2.65834">
        <ele>699.4963379</ele>
        <time>2014-04-05T06:16:01Z</time>
      </trkpt>
      <trkpt lat="44.33062" lon="2.65847">
        <ele>699.9770508</ele>
        <time>2014-04-05T06:16:07Z</time>
      </trkpt>
      <trkpt lat="44.33066" lon="2.65852">
        <ele>699.9770508</ele>
        <time>2014-04-05T06:16:10Z</time>
      </trkpt>
      <trkpt lat="44.3307" lon="2.65858">
        <ele>699.4963379</ele>
        <time>2014-04-05T06:16:13Z</time>
      </trkpt>
      <trkpt lat="44.33072" lon="2.65872">
        <ele>699.015625</ele>
        <time>2014-04-05T06:16:19Z</time>
      </trkpt>
      <trkpt lat="44.33072" lon="2.65882">
        <ele>699.015625</ele>
        <time>2014-04-05T06:16:23Z</time>
      </trkpt>
      <trkpt lat="44.33072" lon="2.65885">
        <ele>699.4963379</ele>
        <time>2014-04-05T06:16:24Z</time>
      </trkpt>
      <trkpt lat="44.33071" lon="2.65907">
        <ele>701.4191895</ele>
        <time>2014-04-05T06:16:32Z</time>
      </trkpt>
      <trkpt lat="44.33073" lon="2.65923">
        <ele>702.861084</ele>
        <time>2014-04-05T06:16:38Z</time>
      </trkpt>
      <trkpt lat="44.33081" lon="2.65933">
        <ele>705.2644043</ele>
        <time>2014-04-05T06:16:43Z</time>
      </trkpt>
      <trkpt lat="44.33089" lon="2.65937">
        <ele>707.1870117</ele>
        <time>2014-04-05T06:16:47Z</time>
      </trkpt>
      <trkpt lat="44.33102" lon="2.65939">
        <ele>711.9936523</ele>
        <time>2014-04-05T06:16:53Z</time>
      </trkpt>
      <trkpt lat="44.33117" lon="2.65941">
        <ele>714.8774414</ele>
        <time>2014-04-05T06:17:00Z</time>
      </trkpt>
      <trkpt lat="44.33128" lon="2.65942">
        <ele>716.800293</ele>
        <time>2014-04-05T06:17:05Z</time>
      </trkpt>
      <trkpt lat="44.33141" lon="2.65945">
        <ele>718.2421875</ele>
        <time>2014-04-05T06:17:11Z</time>
      </trkpt>
      <trkpt lat="44.33152" lon="2.65956">
        <ele>716.800293</ele>
        <time>2014-04-05T06:17:16Z</time>
      </trkpt>
      <trkpt lat="44.33159" lon="2.6597">
        <ele>716.3195801</ele>
        <time>2014-04-05T06:17:22Z</time>
      </trkpt>
      <trkpt lat="44.3316" lon="2.65972">
        <ele>715.8388672</ele>
        <time>2014-04-05T06:17:23Z</time>
      </trkpt>
      <trkpt lat="44.33161" lon="2.65984">
        <ele>715.8388672</ele>
        <time>2014-04-05T06:17:27Z</time>
      </trkpt>
      <trkpt lat="44.33155" lon="2.65995">
        <ele>716.800293</ele>
        <time>2014-04-05T06:17:32Z</time>
      </trkpt>
      <trkpt lat="44.33145" lon="2.66001">
        <ele>717.2810059</ele>
        <time>2014-04-05T06:17:38Z</time>
      </trkpt>
      <trkpt lat="44.33135" lon="2.66017">
        <ele>718.2421875</ele>
        <time>2014-04-05T06:17:45Z</time>
      </trkpt>
      <trkpt lat="44.33124" lon="2.6603">
        <ele>719.2036133</ele>
        <time>2014-04-05T06:17:51Z</time>
      </trkpt>
      <trkpt lat="44.33116" lon="2.66036">
        <ele>720.6455078</ele>
        <time>2014-04-05T06:17:55Z</time>
      </trkpt>
      <trkpt lat="44.33107" lon="2.6604">
        <ele>720.6455078</ele>
        <time>2014-04-05T06:18:00Z</time>
      </trkpt>
      <trkpt lat="44.33092" lon="2.66048">
        <ele>721.6066895</ele>
        <time>2014-04-05T06:18:08Z</time>
      </trkpt>
      <trkpt lat="44.33082" lon="2.66058">
        <ele>723.529541</ele>
        <time>2014-04-05T06:18:13Z</time>
      </trkpt>
      <trkpt lat="44.33075" lon="2.66066">
        <ele>725.4519043</ele>
        <time>2014-04-05T06:18:17Z</time>
      </trkpt>
      <trkpt lat="44.33068" lon="2.66074">
        <ele>725.9326172</ele>
        <time>2014-04-05T06:18:21Z</time>
      </trkpt>
      <trkpt lat="44.33064" lon="2.66078">
        <ele>725.9326172</ele>
        <time>2014-04-05T06:18:23Z</time>
      </trkpt>
      <trkpt lat="44.33051" lon="2.6609">
        <ele>727.3747559</ele>
        <time>2014-04-05T06:18:30Z</time>
      </trkpt>
      <trkpt lat="44.33039" lon="2.66098">
        <ele>727.8552246</ele>
        <time>2014-04-05T06:18:35Z</time>
      </trkpt>
      <trkpt lat="44.33034" lon="2.66101">
        <ele>728.3359375</ele>
        <time>2014-04-05T06:18:37Z</time>
      </trkpt>
      <trkpt lat="44.33021" lon="2.66107">
        <ele>728.3359375</ele>
        <time>2014-04-05T06:18:43Z</time>
      </trkpt>
      <trkpt lat="44.33011" lon="2.6611">
        <ele>727.8552246</ele>
        <time>2014-04-05T06:18:48Z</time>
      </trkpt>
      <trkpt lat="44.33" lon="2.66107">
        <ele>727.3747559</ele>
        <time>2014-04-05T06:18:53Z</time>
      </trkpt>
      <trkpt lat="44.32988" lon="2.66104">
        <ele>726.894043</ele>
        <time>2014-04-05T06:18:57Z</time>
      </trkpt>
      <trkpt lat="44.32974" lon="2.66105">
        <ele>727.8552246</ele>
        <time>2014-04-05T06:19:02Z</time>
      </trkpt>
      <trkpt lat="44.32959" lon="2.66107">
        <ele>728.3359375</ele>
        <time>2014-04-05T06:19:08Z</time>
      </trkpt>
      <trkpt lat="44.32948" lon="2.66107">
        <ele>729.2971191</ele>
        <time>2014-04-05T06:19:13Z</time>
      </trkpt>
      <trkpt lat="44.32933" lon="2.66113">
        <ele>731.2199707</ele>
        <time>2014-04-05T06:19:19Z</time>
      </trkpt>
      <trkpt lat="44.3292" lon="2.66119">
        <ele>732.6621094</ele>
        <time>2014-04-05T06:19:24Z</time>
      </trkpt>
      <trkpt lat="44.32908" lon="2.66122">
        <ele>732.6621094</ele>
        <time>2014-04-05T06:19:30Z</time>
      </trkpt>
      <trkpt lat="44.32904" lon="2.66123">
        <ele>733.1425781</ele>
        <time>2014-04-05T06:19:32Z</time>
      </trkpt>
      <trkpt lat="44.32895" lon="2.66123">
        <ele>733.623291</ele>
        <time>2014-04-05T06:19:36Z</time>
      </trkpt>
      <trkpt lat="44.32882" lon="2.66127">
        <ele>734.5847168</ele>
        <time>2014-04-05T06:19:41Z</time>
      </trkpt>
      <trkpt lat="44.3287" lon="2.66132">
        <ele>736.0266113</ele>
        <time>2014-04-05T06:19:46Z</time>
      </trkpt>
      <trkpt lat="44.32859" lon="2.66136">
        <ele>736.0266113</ele>
        <time>2014-04-05T06:19:51Z</time>
      </trkpt>
      <trkpt lat="44.32846" lon="2.66143">
        <ele>735.5458984</ele>
        <time>2014-04-05T06:19:56Z</time>
      </trkpt>
      <trkpt lat="44.32834" lon="2.66154">
        <ele>736.0266113</ele>
        <time>2014-04-05T06:20:01Z</time>
      </trkpt>
      <trkpt lat="44.32824" lon="2.66168">
        <ele>736.987793</ele>
        <time>2014-04-05T06:20:06Z</time>
      </trkpt>
      <trkpt lat="44.32812" lon="2.66187">
        <ele>736.5073242</ele>
        <time>2014-04-05T06:20:11Z</time>
      </trkpt>
      <trkpt lat="44.32804" lon="2.66211">
        <ele>737.4685059</ele>
        <time>2014-04-05T06:20:17Z</time>
      </trkpt>
      <trkpt lat="44.32796" lon="2.66231">
        <ele>736.987793</ele>
        <time>2014-04-05T06:20:22Z</time>
      </trkpt>
      <trkpt lat="44.32791" lon="2.66248">
        <ele>736.987793</ele>
        <time>2014-04-05T06:20:27Z</time>
      </trkpt>
      <trkpt lat="44.3279" lon="2.66269">
        <ele>738.4299316</ele>
        <time>2014-04-05T06:20:32Z</time>
      </trkpt>
      <trkpt lat="44.32793" lon="2.66283">
        <ele>738.9106445</ele>
        <time>2014-04-05T06:20:36Z</time>
      </trkpt>
      <trkpt lat="44.32806" lon="2.66296">
        <ele>739.3911133</ele>
        <time>2014-04-05T06:20:42Z</time>
      </trkpt>
      <trkpt lat="44.32816" lon="2.66296">
        <ele>740.3525391</ele>
        <time>2014-04-05T06:20:46Z</time>
      </trkpt>
      <trkpt lat="44.3283" lon="2.66288">
        <ele>742.7558594</ele>
        <time>2014-04-05T06:20:52Z</time>
      </trkpt>
      <trkpt lat="44.32832" lon="2.66287">
        <ele>743.2363281</ele>
        <time>2014-04-05T06:20:53Z</time>
      </trkpt>
      <trkpt lat="44.3285" lon="2.66288">
        <ele>746.1203613</ele>
        <time>2014-04-05T06:21:00Z</time>
      </trkpt>
      <trkpt lat="44.32859" lon="2.66298">
        <ele>745.1589355</ele>
        <time>2014-04-05T06:21:05Z</time>
      </trkpt>
      <trkpt lat="44.32872" lon="2.6631">
        <ele>745.6396484</ele>
        <time>2014-04-05T06:21:11Z</time>
      </trkpt>
      <trkpt lat="44.32883" lon="2.6632">
        <ele>745.6396484</ele>
        <time>2014-04-05T06:21:16Z</time>
      </trkpt>
      <trkpt lat="44.32895" lon="2.66332">
        <ele>745.6396484</ele>
        <time>2014-04-05T06:21:22Z</time>
      </trkpt>
      <trkpt lat="44.32908" lon="2.66341">
        <ele>746.1203613</ele>
        <time>2014-04-05T06:21:28Z</time>
      </trkpt>
      <trkpt lat="44.32919" lon="2.66349">
        <ele>747.081543</ele>
        <time>2014-04-05T06:21:33Z</time>
      </trkpt>
      <trkpt lat="44.3293" lon="2.66361">
        <ele>749.0043945</ele>
        <time>2014-04-05T06:21:39Z</time>
      </trkpt>
      <trkpt lat="44.32931" lon="2.66377">
        <ele>749.9658203</ele>
        <time>2014-04-05T06:21:44Z</time>
      </trkpt>
      <trkpt lat="44.32927" lon="2.66389">
        <ele>750.4465332</ele>
        <time>2014-04-05T06:21:49Z</time>
      </trkpt>
      <trkpt lat="44.32921" lon="2.66402">
        <ele>750.927002</ele>
        <time>2014-04-05T06:21:54Z</time>
      </trkpt>
      <trkpt lat="44.32914" lon="2.66419">
        <ele>753.3303223</ele>
        <time>2014-04-05T06:22:00Z</time>
      </trkpt>
      <trkpt lat="44.32905" lon="2.66431">
        <ele>755.2529297</ele>
        <time>2014-04-05T06:22:05Z</time>
      </trkpt>
      <trkpt lat="44.32892" lon="2.66441">
        <ele>755.7336426</ele>
        <time>2014-04-05T06:22:11Z</time>
      </trkpt>
      <trkpt lat="44.32888" lon="2.66442">
        <ele>755.7336426</ele>
        <time>2014-04-05T06:22:13Z</time>
      </trkpt>
      <trkpt lat="44.32872" lon="2.66442">
        <ele>755.7336426</ele>
        <time>2014-04-05T06:22:20Z</time>
      </trkpt>
      <trkpt lat="44.32861" lon="2.66442">
        <ele>756.2141113</ele>
        <time>2014-04-05T06:22:26Z</time>
      </trkpt>
      <trkpt lat="44.32853" lon="2.66443">
        <ele>757.1755371</ele>
        <time>2014-04-05T06:22:31Z</time>
      </trkpt>
      <trkpt lat="44.32843" lon="2.66448">
        <ele>758.1369629</ele>
        <time>2014-04-05T06:22:37Z</time>
      </trkpt>
      <trkpt lat="44.32833" lon="2.66453">
        <ele>758.1369629</ele>
        <time>2014-04-05T06:22:42Z</time>
      </trkpt>
      <trkpt lat="44.32827" lon="2.66455">
        <ele>757.65625</ele>
        <time>2014-04-05T06:22:45Z</time>
      </trkpt>
      <trkpt lat="44.32817" lon="2.66464">
        <ele>759.0981445</ele>
        <time>2014-04-05T06:22:50Z</time>
      </trkpt>
      <trkpt lat="44.32808" lon="2.66471">
        <ele>761.020752</ele>
        <time>2014-04-05T06:22:54Z</time>
      </trkpt>
      <trkpt lat="44.32792" lon="2.6648">
        <ele>761.020752</ele>
        <time>2014-04-05T06:23:01Z</time>
      </trkpt>
      <trkpt lat="44.32779" lon="2.66485">
        <ele>761.9821777</ele>
        <time>2014-04-05T06:23:06Z</time>
      </trkpt>
      <trkpt lat="44.32763" lon="2.66495">
        <ele>762.9433594</ele>
        <time>2014-04-05T06:23:12Z</time>
      </trkpt>
      <trkpt lat="44.32748" lon="2.66505">
        <ele>763.4240723</ele>
        <time>2014-04-05T06:23:18Z</time>
      </trkpt>
      <trkpt lat="44.32736" lon="2.66514">
        <ele>763.904541</ele>
        <time>2014-04-05T06:23:23Z</time>
      </trkpt>
      <trkpt lat="44.32724" lon="2.66524">
        <ele>763.904541</ele>
        <time>2014-04-05T06:23:28Z</time>
      </trkpt>
      <trkpt lat="44.32709" lon="2.66533">
        <ele>763.4240723</ele>
        <time>2014-04-05T06:23:34Z</time>
      </trkpt>
      <trkpt lat="44.32697" lon="2.66542">
        <ele>763.4240723</ele>
        <time>2014-04-05T06:23:39Z</time>
      </trkpt>
      <trkpt lat="44.32683" lon="2.66552">
        <ele>765.3469238</ele>
        <time>2014-04-05T06:23:45Z</time>
      </trkpt>
      <trkpt lat="44.32671" lon="2.66566">
        <ele>768.2307129</ele>
        <time>2014-04-05T06:23:51Z</time>
      </trkpt>
      <trkpt lat="44.32663" lon="2.66585">
        <ele>772.0759277</ele>
        <time>2014-04-05T06:23:57Z</time>
      </trkpt>
      <trkpt lat="44.32656" lon="2.66604">
        <ele>775.4404297</ele>
        <time>2014-04-05T06:24:02Z</time>
      </trkpt>
      <trkpt lat="44.3265" lon="2.66622">
        <ele>776.8825684</ele>
        <time>2014-04-05T06:24:07Z</time>
      </trkpt>
      <trkpt lat="44.32646" lon="2.66634">
        <ele>776.8825684</ele>
        <time>2014-04-05T06:24:11Z</time>
      </trkpt>
      <trkpt lat="44.32642" lon="2.66649">
        <ele>776.8825684</ele>
        <time>2014-04-05T06:24:15Z</time>
      </trkpt>
      <trkpt lat="44.32642" lon="2.66668">
        <ele>778.3244629</ele>
        <time>2014-04-05T06:24:20Z</time>
      </trkpt>
      <trkpt lat="44.3264" lon="2.66688">
        <ele>778.8051758</ele>
        <time>2014-04-05T06:24:25Z</time>
      </trkpt>
      <trkpt lat="44.32638" lon="2.66701">
        <ele>779.2856445</ele>
        <time>2014-04-05T06:24:28Z</time>
      </trkpt>
      <trkpt lat="44.32632" lon="2.66722">
        <ele>779.7663574</ele>
        <time>2014-04-05T06:24:35Z</time>
      </trkpt>
      <trkpt lat="44.32629" lon="2.66739">
        <ele>780.2473145</ele>
        <time>2014-04-05T06:24:40Z</time>
      </trkpt>
      <trkpt lat="44.32627" lon="2.66757">
        <ele>781.689209</ele>
        <time>2014-04-05T06:24:45Z</time>
      </trkpt>
      <trkpt lat="44.32627" lon="2.66781">
        <ele>784.5732422</ele>
        <time>2014-04-05T06:24:52Z</time>
      </trkpt>
      <trkpt lat="44.32632" lon="2.66803">
        <ele>788.418457</ele>
        <time>2014-04-05T06:24:59Z</time>
      </trkpt>
      <trkpt lat="44.32641" lon="2.66821">
        <ele>789.8603516</ele>
        <time>2014-04-05T06:25:05Z</time>
      </trkpt>
      <trkpt lat="44.32652" lon="2.66831">
        <ele>789.8603516</ele>
        <time>2014-04-05T06:25:11Z</time>
      </trkpt>
      <trkpt lat="44.32661" lon="2.66838">
        <ele>790.8215332</ele>
        <time>2014-04-05T06:25:16Z</time>
      </trkpt>
      <trkpt lat="44.32673" lon="2.6684">
        <ele>790.8215332</ele>
        <time>2014-04-05T06:25:21Z</time>
      </trkpt>
      <trkpt lat="44.3269" lon="2.66841">
        <ele>789.8603516</ele>
        <time>2014-04-05T06:25:28Z</time>
      </trkpt>
      <trkpt lat="44.32708" lon="2.66842">
        <ele>788.418457</ele>
        <time>2014-04-05T06:25:35Z</time>
      </trkpt>
      <trkpt lat="44.32721" lon="2.66845">
        <ele>787.4570313</ele>
        <time>2014-04-05T06:25:40Z</time>
      </trkpt>
      <trkpt lat="44.32735" lon="2.66847">
        <ele>786.0151367</ele>
        <time>2014-04-05T06:25:45Z</time>
      </trkpt>
      <trkpt lat="44.32752" lon="2.66847">
        <ele>785.0539551</ele>
        <time>2014-04-05T06:25:51Z</time>
      </trkpt>
      <trkpt lat="44.32767" lon="2.66844">
        <ele>785.5344238</ele>
        <time>2014-04-05T06:25:56Z</time>
      </trkpt>
      <trkpt lat="44.32784" lon="2.6684">
        <ele>786.4958496</ele>
        <time>2014-04-05T06:26:02Z</time>
      </trkpt>
      <trkpt lat="44.32803" lon="2.66838">
        <ele>786.9763184</ele>
        <time>2014-04-05T06:26:08Z</time>
      </trkpt>
      <trkpt lat="44.32816" lon="2.66837">
        <ele>786.9763184</ele>
        <time>2014-04-05T06:26:12Z</time>
      </trkpt>
      <trkpt lat="44.3283" lon="2.66836">
        <ele>786.4958496</ele>
        <time>2014-04-05T06:26:17Z</time>
      </trkpt>
      <trkpt lat="44.32844" lon="2.66838">
        <ele>786.9763184</ele>
        <time>2014-04-05T06:26:22Z</time>
      </trkpt>
      <trkpt lat="44.32859" lon="2.6684">
        <ele>787.9377441</ele>
        <time>2014-04-05T06:26:27Z</time>
      </trkpt>
      <trkpt lat="44.32874" lon="2.66839">
        <ele>786.9763184</ele>
        <time>2014-04-05T06:26:33Z</time>
      </trkpt>
      <trkpt lat="44.32888" lon="2.6684">
        <ele>786.4958496</ele>
        <time>2014-04-05T06:26:38Z</time>
      </trkpt>
      <trkpt lat="44.32904" lon="2.66842">
        <ele>786.0151367</ele>
        <time>2014-04-05T06:26:44Z</time>
      </trkpt>
      <trkpt lat="44.3292" lon="2.66839">
        <ele>785.0539551</ele>
        <time>2014-04-05T06:26:49Z</time>
      </trkpt>
      <trkpt lat="44.32936" lon="2.66833">
        <ele>784.0925293</ele>
        <time>2014-04-05T06:26:55Z</time>
      </trkpt>
      <trkpt lat="44.32949" lon="2.66824">
        <ele>779.2856445</ele>
        <time>2014-04-05T06:27:01Z</time>
      </trkpt>
      <trkpt lat="44.32964" lon="2.66816">
        <ele>773.0373535</ele>
        <time>2014-04-05T06:27:07Z</time>
      </trkpt>
      <trkpt lat="44.32976" lon="2.66811">
        <ele>767.75</ele>
        <time>2014-04-05T06:27:12Z</time>
      </trkpt>
      <trkpt lat="44.32988" lon="2.66805">
        <ele>764.8662109</ele>
        <time>2014-04-05T06:27:17Z</time>
      </trkpt>
      <trkpt lat="44.33002" lon="2.66804">
        <ele>764.385498</ele>
        <time>2014-04-05T06:27:22Z</time>
      </trkpt>
      <trkpt lat="44.33017" lon="2.66801">
        <ele>761.9821777</ele>
        <time>2014-04-05T06:27:27Z</time>
      </trkpt>
      <trkpt lat="44.33034" lon="2.66792">
        <ele>759.5788574</ele>
        <time>2014-04-05T06:27:33Z</time>
      </trkpt>
      <trkpt lat="44.33047" lon="2.66782">
        <ele>758.6174316</ele>
        <time>2014-04-05T06:27:38Z</time>
      </trkpt>
      <trkpt lat="44.33056" lon="2.66776">
        <ele>758.1369629</ele>
        <time>2014-04-05T06:27:41Z</time>
      </trkpt>
      <trkpt lat="44.33062" lon="2.66772">
        <ele>757.65625</ele>
        <time>2014-04-05T06:27:43Z</time>
      </trkpt>
      <trkpt lat="44.33077" lon="2.6677">
        <ele>756.2141113</ele>
        <time>2014-04-05T06:27:48Z</time>
      </trkpt>
      <trkpt lat="44.33092" lon="2.66771">
        <ele>756.2141113</ele>
        <time>2014-04-05T06:27:53Z</time>
      </trkpt>
      <trkpt lat="44.33105" lon="2.66771">
        <ele>756.6948242</ele>
        <time>2014-04-05T06:27:58Z</time>
      </trkpt>
      <trkpt lat="44.33121" lon="2.66767">
        <ele>757.65625</ele>
        <time>2014-04-05T06:28:03Z</time>
      </trkpt>
      <trkpt lat="44.33134" lon="2.66762">
        <ele>756.6948242</ele>
        <time>2014-04-05T06:28:08Z</time>
      </trkpt>
      <trkpt lat="44.33138" lon="2.66759">
        <ele>757.1755371</ele>
        <time>2014-04-05T06:28:10Z</time>
      </trkpt>
      <trkpt lat="44.33149" lon="2.66755">
        <ele>754.291748</ele>
        <time>2014-04-05T06:28:15Z</time>
      </trkpt>
      <trkpt lat="44.33151" lon="2.66754">
        <ele>753.3303223</ele>
        <time>2014-04-05T06:28:16Z</time>
      </trkpt>
      <trkpt lat="44.33168" lon="2.66745">
        <ele>748.5236816</ele>
        <time>2014-04-05T06:28:23Z</time>
      </trkpt>
      <trkpt lat="44.33184" lon="2.66738">
        <ele>743.717041</ele>
        <time>2014-04-05T06:28:29Z</time>
      </trkpt>
      <trkpt lat="44.33195" lon="2.66733">
        <ele>741.3137207</ele>
        <time>2014-04-05T06:28:33Z</time>
      </trkpt>
      <trkpt lat="44.33207" lon="2.66724">
        <ele>737.4685059</ele>
        <time>2014-04-05T06:28:38Z</time>
      </trkpt>
      <trkpt lat="44.33221" lon="2.66715">
        <ele>736.0266113</ele>
        <time>2014-04-05T06:28:43Z</time>
      </trkpt>
      <trkpt lat="44.3323" lon="2.66709">
        <ele>735.5458984</ele>
        <time>2014-04-05T06:28:47Z</time>
      </trkpt>
      <trkpt lat="44.33243" lon="2.66703">
        <ele>734.5847168</ele>
        <time>2014-04-05T06:28:52Z</time>
      </trkpt>
      <trkpt lat="44.33256" lon="2.66693">
        <ele>732.6621094</ele>
        <time>2014-04-05T06:28:57Z</time>
      </trkpt>
      <trkpt lat="44.33267" lon="2.66686">
        <ele>731.7004395</ele>
        <time>2014-04-05T06:29:02Z</time>
      </trkpt>
      <trkpt lat="44.33278" lon="2.66678">
        <ele>730.2585449</ele>
        <time>2014-04-05T06:29:06Z</time>
      </trkpt>
      <trkpt lat="44.3329" lon="2.66668">
        <ele>727.8552246</ele>
        <time>2014-04-05T06:29:11Z</time>
      </trkpt>
      <trkpt lat="44.33302" lon="2.66658">
        <ele>725.4519043</ele>
        <time>2014-04-05T06:29:16Z</time>
      </trkpt>
      <trkpt lat="44.33316" lon="2.66644">
        <ele>723.0488281</ele>
        <time>2014-04-05T06:29:22Z</time>
      </trkpt>
      <trkpt lat="44.33319" lon="2.66643">
        <ele>722.0874023</ele>
        <time>2014-04-05T06:29:23Z</time>
      </trkpt>
      <trkpt lat="44.33332" lon="2.66631">
        <ele>720.6455078</ele>
        <time>2014-04-05T06:29:28Z</time>
      </trkpt>
      <trkpt lat="44.33334" lon="2.66628">
        <ele>720.6455078</ele>
        <time>2014-04-05T06:29:29Z</time>
      </trkpt>
      <trkpt lat="44.33347" lon="2.6662">
        <ele>720.6455078</ele>
        <time>2014-04-05T06:29:34Z</time>
      </trkpt>
      <trkpt lat="44.33357" lon="2.66614">
        <ele>719.6843262</ele>
        <time>2014-04-05T06:29:38Z</time>
      </trkpt>
      <trkpt lat="44.3337" lon="2.66605">
        <ele>721.6066895</ele>
        <time>2014-04-05T06:29:43Z</time>
      </trkpt>
      <trkpt lat="44.33383" lon="2.66596">
        <ele>723.529541</ele>
        <time>2014-04-05T06:29:48Z</time>
      </trkpt>
      <trkpt lat="44.33397" lon="2.66589">
        <ele>725.9326172</ele>
        <time>2014-04-05T06:29:53Z</time>
      </trkpt>
      <trkpt lat="44.3341" lon="2.66582">
        <ele>724.9714355</ele>
        <time>2014-04-05T06:29:58Z</time>
      </trkpt>
      <trkpt lat="44.33419" lon="2.66578">
        <ele>724.0100098</ele>
        <time>2014-04-05T06:30:02Z</time>
      </trkpt>
      <trkpt lat="44.33429" lon="2.66574">
        <ele>725.4519043</ele>
        <time>2014-04-05T06:30:06Z</time>
      </trkpt>
      <trkpt lat="44.33441" lon="2.66563">
        <ele>724.9714355</ele>
        <time>2014-04-05T06:30:11Z</time>
      </trkpt>
      <trkpt lat="44.33451" lon="2.66555">
        <ele>723.529541</ele>
        <time>2014-04-05T06:30:15Z</time>
      </trkpt>
      <trkpt lat="44.33458" lon="2.66543">
        <ele>721.6066895</ele>
        <time>2014-04-05T06:30:19Z</time>
      </trkpt>
      <trkpt lat="44.33465" lon="2.66526">
        <ele>718.2421875</ele>
        <time>2014-04-05T06:30:24Z</time>
      </trkpt>
      <trkpt lat="44.33477" lon="2.66509">
        <ele>715.8388672</ele>
        <time>2014-04-05T06:30:30Z</time>
      </trkpt>
      <trkpt lat="44.3348" lon="2.66501">
        <ele>715.3581543</ele>
        <time>2014-04-05T06:30:32Z</time>
      </trkpt>
      <trkpt lat="44.3348" lon="2.66481">
        <ele>713.9160156</ele>
        <time>2014-04-05T06:30:37Z</time>
      </trkpt>
      <trkpt lat="44.33481" lon="2.66478">
        <ele>712.954834</ele>
        <time>2014-04-05T06:30:38Z</time>
      </trkpt>
      <trkpt lat="44.33483" lon="2.66468">
        <ele>711.0322266</ele>
        <time>2014-04-05T06:30:41Z</time>
      </trkpt>
      <trkpt lat="44.33483" lon="2.66443">
        <ele>708.6289063</ele>
        <time>2014-04-05T06:30:47Z</time>
      </trkpt>
      <trkpt lat="44.33483" lon="2.66432">
        <ele>706.2255859</ele>
        <time>2014-04-05T06:30:50Z</time>
      </trkpt>
      <trkpt lat="44.33487" lon="2.66413">
        <ele>700.9384766</ele>
        <time>2014-04-05T06:30:56Z</time>
      </trkpt>
      <trkpt lat="44.33487" lon="2.66408">
        <ele>698.5349121</ele>
        <time>2014-04-05T06:30:58Z</time>
      </trkpt>
      <trkpt lat="44.33484" lon="2.66392">
        <ele>692.2866211</ele>
        <time>2014-04-05T06:31:03Z</time>
      </trkpt>
      <trkpt lat="44.33488" lon="2.66386">
        <ele>689.4025879</ele>
        <time>2014-04-05T06:31:06Z</time>
      </trkpt>
      <trkpt lat="44.33493" lon="2.66388">
        <ele>687.4799805</ele>
        <time>2014-04-05T06:31:08Z</time>
      </trkpt>
      <trkpt lat="44.33503" lon="2.66399">
        <ele>685.0769043</ele>
        <time>2014-04-05T06:31:13Z</time>
      </trkpt>
      <trkpt lat="44.33512" lon="2.66405">
        <ele>684.5961914</ele>
        <time>2014-04-05T06:31:18Z</time>
      </trkpt>
      <trkpt lat="44.33525" lon="2.66411">
        <ele>685.0769043</ele>
        <time>2014-04-05T06:31:24Z</time>
      </trkpt>
      <trkpt lat="44.33538" lon="2.66418">
        <ele>686.5187988</ele>
        <time>2014-04-05T06:31:29Z</time>
      </trkpt>
      <trkpt lat="44.33551" lon="2.66426">
        <ele>688.4414063</ele>
        <time>2014-04-05T06:31:34Z</time>
      </trkpt>
      <trkpt lat="44.33561" lon="2.66437">
        <ele>688.4414063</ele>
        <time>2014-04-05T06:31:38Z</time>
      </trkpt>
      <trkpt lat="44.33569" lon="2.6645">
        <ele>689.4025879</ele>
        <time>2014-04-05T06:31:42Z</time>
      </trkpt>
      <trkpt lat="44.33572" lon="2.66465">
        <ele>689.8833008</ele>
        <time>2014-04-05T06:31:46Z</time>
      </trkpt>
      <trkpt lat="44.33572" lon="2.66485">
        <ele>692.2866211</ele>
        <time>2014-04-05T06:31:51Z</time>
      </trkpt>
      <trkpt lat="44.33566" lon="2.66509">
        <ele>696.1318359</ele>
        <time>2014-04-05T06:31:57Z</time>
      </trkpt>
      <trkpt lat="44.33559" lon="2.66526">
        <ele>697.0930176</ele>
        <time>2014-04-05T06:32:02Z</time>
      </trkpt>
      <trkpt lat="44.3355" lon="2.66542">
        <ele>694.6896973</ele>
        <time>2014-04-05T06:32:07Z</time>
      </trkpt>
      <trkpt lat="44.33543" lon="2.6656">
        <ele>694.6896973</ele>
        <time>2014-04-05T06:32:12Z</time>
      </trkpt>
      <trkpt lat="44.33537" lon="2.66581">
        <ele>695.651123</ele>
        <time>2014-04-05T06:32:18Z</time>
      </trkpt>
      <trkpt lat="44.3353" lon="2.66594">
        <ele>693.7285156</ele>
        <time>2014-04-05T06:32:22Z</time>
      </trkpt>
      <trkpt lat="44.3352" lon="2.66608">
        <ele>688.9221191</ele>
        <time>2014-04-05T06:32:27Z</time>
      </trkpt>
      <trkpt lat="44.3351" lon="2.66626">
        <ele>686.5187988</ele>
        <time>2014-04-05T06:32:32Z</time>
      </trkpt>
      <trkpt lat="44.33506" lon="2.66642">
        <ele>685.557373</ele>
        <time>2014-04-05T06:32:36Z</time>
      </trkpt>
      <trkpt lat="44.335" lon="2.66659">
        <ele>684.5961914</ele>
        <time>2014-04-05T06:32:41Z</time>
      </trkpt>
      <trkpt lat="44.33495" lon="2.66672">
        <ele>685.557373</ele>
        <time>2014-04-05T06:32:45Z</time>
      </trkpt>
      <trkpt lat="44.33487" lon="2.66694">
        <ele>683.1538086</ele>
        <time>2014-04-05T06:32:51Z</time>
      </trkpt>
      <trkpt lat="44.3348" lon="2.66712">
        <ele>680.7507324</ele>
        <time>2014-04-05T06:32:56Z</time>
      </trkpt>
      <trkpt lat="44.33469" lon="2.66727">
        <ele>676.9055176</ele>
        <time>2014-04-05T06:33:01Z</time>
      </trkpt>
      <trkpt lat="44.33466" lon="2.66742">
        <ele>679.7893066</ele>
        <time>2014-04-05T06:33:06Z</time>
      </trkpt>
      <trkpt lat="44.33471" lon="2.66761">
        <ele>680.2700195</ele>
        <time>2014-04-05T06:33:11Z</time>
      </trkpt>
      <trkpt lat="44.33465" lon="2.66784">
        <ele>677.3862305</ele>
        <time>2014-04-05T06:33:17Z</time>
      </trkpt>
      <trkpt lat="44.33463" lon="2.66797">
        <ele>675.4633789</ele>
        <time>2014-04-05T06:33:21Z</time>
      </trkpt>
      <trkpt lat="44.33458" lon="2.66806">
        <ele>674.0214844</ele>
        <time>2014-04-05T06:33:24Z</time>
      </trkpt>
      <trkpt lat="44.33447" lon="2.66823">
        <ele>672.5795898</ele>
        <time>2014-04-05T06:33:30Z</time>
      </trkpt>
      <trkpt lat="44.33435" lon="2.66838">
        <ele>670.6569824</ele>
        <time>2014-04-05T06:33:36Z</time>
      </trkpt>
      <trkpt lat="44.33426" lon="2.6685">
        <ele>670.1762695</ele>
        <time>2014-04-05T06:33:41Z</time>
      </trkpt>
      <trkpt lat="44.33415" lon="2.66859">
        <ele>669.2150879</ele>
        <time>2014-04-05T06:33:46Z</time>
      </trkpt>
      <trkpt lat="44.33403" lon="2.66867">
        <ele>668.734375</ele>
        <time>2014-04-05T06:33:51Z</time>
      </trkpt>
      <trkpt lat="44.33392" lon="2.66875">
        <ele>668.734375</ele>
        <time>2014-04-05T06:33:56Z</time>
      </trkpt>
      <trkpt lat="44.33381" lon="2.66883">
        <ele>668.2536621</ele>
        <time>2014-04-05T06:34:01Z</time>
      </trkpt>
      <trkpt lat="44.3337" lon="2.66892">
        <ele>668.734375</ele>
        <time>2014-04-05T06:34:06Z</time>
      </trkpt>
      <trkpt lat="44.33358" lon="2.66896">
        <ele>669.2150879</ele>
        <time>2014-04-05T06:34:11Z</time>
      </trkpt>
      <trkpt lat="44.33347" lon="2.66894">
        <ele>669.2150879</ele>
        <time>2014-04-05T06:34:16Z</time>
      </trkpt>
      <trkpt lat="44.33343" lon="2.66896">
        <ele>671.1376953</ele>
        <time>2014-04-05T06:34:18Z</time>
      </trkpt>
      <trkpt lat="44.33337" lon="2.66904">
        <ele>675.4633789</ele>
        <time>2014-04-05T06:34:22Z</time>
      </trkpt>
      <trkpt lat="44.33336" lon="2.66909">
        <ele>678.3474121</ele>
        <time>2014-04-05T06:34:24Z</time>
      </trkpt>
      <trkpt lat="44.33337" lon="2.66913">
        <ele>681.7119141</ele>
        <time>2014-04-05T06:34:29Z</time>
      </trkpt>
      <trkpt lat="44.33335" lon="2.66908">
        <ele>682.192627</ele>
        <time>2014-04-05T06:34:37Z</time>
      </trkpt>
      <trkpt lat="44.33332" lon="2.66907">
        <ele>680.7507324</ele>
        <time>2014-04-05T06:34:42Z</time>
      </trkpt>
      <trkpt lat="44.33456" lon="2.67228">
        <ele>655.2758789</ele>
        <time>2014-04-05T06:40:27Z</time>
      </trkpt>
      <trkpt lat="44.3346" lon="2.67239">
        <ele>656.2370605</ele>
        <time>2014-04-05T06:40:31Z</time>
      </trkpt>
      <trkpt lat="44.33461" lon="2.67249">
        <ele>659.1210938</ele>
        <time>2014-04-05T06:40:35Z</time>
      </trkpt>
      <trkpt lat="44.33461" lon="2.67266">
        <ele>662.4855957</ele>
        <time>2014-04-05T06:40:41Z</time>
      </trkpt>
      <trkpt lat="44.33467" lon="2.67267">
        <ele>662.9663086</ele>
        <time>2014-04-05T06:40:47Z</time>
      </trkpt>
      <trkpt lat="44.33465" lon="2.67253">
        <ele>659.1210938</ele>
        <time>2014-04-05T06:40:53Z</time>
      </trkpt>
      <trkpt lat="44.33465" lon="2.67242">
        <ele>659.1210938</ele>
        <time>2014-04-05T06:40:57Z</time>
      </trkpt>
      <trkpt lat="44.33465" lon="2.67229">
        <ele>659.6018066</ele>
        <time>2014-04-05T06:41:02Z</time>
      </trkpt>
      <trkpt lat="44.33465" lon="2.67218">
        <ele>659.1210938</ele>
        <time>2014-04-05T06:41:06Z</time>
      </trkpt>
      <trkpt lat="44.33466" lon="2.67202">
        <ele>658.1599121</ele>
        <time>2014-04-05T06:41:12Z</time>
      </trkpt>
      <trkpt lat="44.33467" lon="2.67189">
        <ele>658.6403809</ele>
        <time>2014-04-05T06:41:16Z</time>
      </trkpt>
      <trkpt lat="44.33468" lon="2.67183">
        <ele>659.6018066</ele>
        <time>2014-04-05T06:41:18Z</time>
      </trkpt>
      <trkpt lat="44.33465" lon="2.67162">
        <ele>661.0437012</ele>
        <time>2014-04-05T06:41:25Z</time>
      </trkpt>
      <trkpt lat="44.3346" lon="2.67143">
        <ele>662.9663086</ele>
        <time>2014-04-05T06:41:31Z</time>
      </trkpt>
      <trkpt lat="44.33459" lon="2.6713">
        <ele>664.4082031</ele>
        <time>2014-04-05T06:41:35Z</time>
      </trkpt>
      <trkpt lat="44.33457" lon="2.6712">
        <ele>664.888916</ele>
        <time>2014-04-05T06:41:38Z</time>
      </trkpt>
      <trkpt lat="44.33456" lon="2.67112">
        <ele>664.888916</ele>
        <time>2014-04-05T06:41:41Z</time>
      </trkpt>
      <trkpt lat="44.33463" lon="2.67094">
        <ele>665.3696289</ele>
        <time>2014-04-05T06:41:48Z</time>
      </trkpt>
      <trkpt lat="44.33466" lon="2.6709">
        <ele>665.8503418</ele>
        <time>2014-04-05T06:41:50Z</time>
      </trkpt>
      <trkpt lat="44.33477" lon="2.67079">
        <ele>666.3308105</ele>
        <time>2014-04-05T06:41:57Z</time>
      </trkpt>
      <trkpt lat="44.3349" lon="2.67071">
        <ele>669.2150879</ele>
        <time>2014-04-05T06:42:04Z</time>
      </trkpt>
      <trkpt lat="44.33496" lon="2.67081">
        <ele>669.6958008</ele>
        <time>2014-04-05T06:42:09Z</time>
      </trkpt>
      <trkpt lat="44.33495" lon="2.67092">
        <ele>671.1376953</ele>
        <time>2014-04-05T06:42:14Z</time>
      </trkpt>
      <trkpt lat="44.33488" lon="2.67102">
        <ele>671.6181641</ele>
        <time>2014-04-05T06:42:19Z</time>
      </trkpt>
      <trkpt lat="44.33483" lon="2.6711">
        <ele>671.1376953</ele>
        <time>2014-04-05T06:42:23Z</time>
      </trkpt>
      <trkpt lat="44.33482" lon="2.67128">
        <ele>674.5021973</ele>
        <time>2014-04-05T06:42:29Z</time>
      </trkpt>
      <trkpt lat="44.33486" lon="2.67144">
        <ele>676.9055176</ele>
        <time>2014-04-05T06:42:34Z</time>
      </trkpt>
      <trkpt lat="44.3349" lon="2.67162">
        <ele>678.828125</ele>
        <time>2014-04-05T06:42:40Z</time>
      </trkpt>
      <trkpt lat="44.33494" lon="2.67176">
        <ele>681.7119141</ele>
        <time>2014-04-05T06:42:45Z</time>
      </trkpt>
      <trkpt lat="44.33496" lon="2.67196">
        <ele>685.0769043</ele>
        <time>2014-04-05T06:42:52Z</time>
      </trkpt>
      <trkpt lat="44.335" lon="2.67209">
        <ele>687.4799805</ele>
        <time>2014-04-05T06:42:57Z</time>
      </trkpt>
      <trkpt lat="44.33505" lon="2.67224">
        <ele>689.4025879</ele>
        <time>2014-04-05T06:43:02Z</time>
      </trkpt>
      <trkpt lat="44.3351" lon="2.67239">
        <ele>692.2866211</ele>
        <time>2014-04-05T06:43:08Z</time>
      </trkpt>
      <trkpt lat="44.33517" lon="2.67253">
        <ele>696.6125488</ele>
        <time>2014-04-05T06:43:14Z</time>
      </trkpt>
      <trkpt lat="44.33523" lon="2.67262">
        <ele>701.4191895</ele>
        <time>2014-04-05T06:43:19Z</time>
      </trkpt>
      <trkpt lat="44.33525" lon="2.67278">
        <ele>705.2644043</ele>
        <time>2014-04-05T06:43:25Z</time>
      </trkpt>
      <trkpt lat="44.33521" lon="2.67296">
        <ele>703.8225098</ele>
        <time>2014-04-05T06:43:31Z</time>
      </trkpt>
      <trkpt lat="44.33518" lon="2.67313">
        <ele>698.0544434</ele>
        <time>2014-04-05T06:43:36Z</time>
      </trkpt>
      <trkpt lat="44.33515" lon="2.67323">
        <ele>696.1318359</ele>
        <time>2014-04-05T06:43:40Z</time>
      </trkpt>
      <trkpt lat="44.33512" lon="2.67339">
        <ele>696.6125488</ele>
        <time>2014-04-05T06:43:45Z</time>
      </trkpt>
      <trkpt lat="44.33511" lon="2.67348">
        <ele>696.6125488</ele>
        <time>2014-04-05T06:43:48Z</time>
      </trkpt>
      <trkpt lat="44.3351" lon="2.67365">
        <ele>696.1318359</ele>
        <time>2014-04-05T06:43:54Z</time>
      </trkpt>
      <trkpt lat="44.33512" lon="2.67376">
        <ele>695.651123</ele>
        <time>2014-04-05T06:43:58Z</time>
      </trkpt>
      <trkpt lat="44.33519" lon="2.67395">
        <ele>698.0544434</ele>
        <time>2014-04-05T06:44:05Z</time>
      </trkpt>
      <trkpt lat="44.33526" lon="2.67414">
        <ele>700.4580078</ele>
        <time>2014-04-05T06:44:12Z</time>
      </trkpt>
      <trkpt lat="44.33531" lon="2.67429">
        <ele>703.3417969</ele>
        <time>2014-04-05T06:44:18Z</time>
      </trkpt>
      <trkpt lat="44.33537" lon="2.67444">
        <ele>706.2255859</ele>
        <time>2014-04-05T06:44:24Z</time>
      </trkpt>
      <trkpt lat="44.33541" lon="2.67459">
        <ele>709.590332</ele>
        <time>2014-04-05T06:44:29Z</time>
      </trkpt>
      <trkpt lat="44.33543" lon="2.67475">
        <ele>709.590332</ele>
        <time>2014-04-05T06:44:34Z</time>
      </trkpt>
      <trkpt lat="44.33542" lon="2.67479">
        <ele>706.7062988</ele>
        <time>2014-04-05T06:44:35Z</time>
      </trkpt>
      <trkpt lat="44.33531" lon="2.6749">
        <ele>706.2255859</ele>
        <time>2014-04-05T06:44:40Z</time>
      </trkpt>
      <trkpt lat="44.33521" lon="2.67489">
        <ele>707.6677246</ele>
        <time>2014-04-05T06:44:45Z</time>
      </trkpt>
      <trkpt lat="44.33518" lon="2.67487">
        <ele>707.1870117</ele>
        <time>2014-04-05T06:44:47Z</time>
      </trkpt>
      <trkpt lat="44.33508" lon="2.67485">
        <ele>710.5515137</ele>
        <time>2014-04-05T06:44:52Z</time>
      </trkpt>
      <trkpt lat="44.33497" lon="2.67492">
        <ele>712.4741211</ele>
        <time>2014-04-05T06:44:58Z</time>
      </trkpt>
      <trkpt lat="44.33488" lon="2.67498">
        <ele>713.4355469</ele>
        <time>2014-04-05T06:45:02Z</time>
      </trkpt>
      <trkpt lat="44.33477" lon="2.67506">
        <ele>715.8388672</ele>
        <time>2014-04-05T06:45:08Z</time>
      </trkpt>
      <trkpt lat="44.33468" lon="2.67519">
        <ele>719.6843262</ele>
        <time>2014-04-05T06:45:13Z</time>
      </trkpt>
      <trkpt lat="44.33462" lon="2.67529">
        <ele>717.7614746</ele>
        <time>2014-04-05T06:45:18Z</time>
      </trkpt>
      <trkpt lat="44.33456" lon="2.67542">
        <ele>716.3195801</ele>
        <time>2014-04-05T06:45:24Z</time>
      </trkpt>
      <trkpt lat="44.3345" lon="2.67555">
        <ele>714.8774414</ele>
        <time>2014-04-05T06:45:30Z</time>
      </trkpt>
      <trkpt lat="44.33443" lon="2.67569">
        <ele>717.7614746</ele>
        <time>2014-04-05T06:45:36Z</time>
      </trkpt>
      <trkpt lat="44.3344" lon="2.67576">
        <ele>719.2036133</ele>
        <time>2014-04-05T06:45:39Z</time>
      </trkpt>
      <trkpt lat="44.33432" lon="2.67588">
        <ele>722.0874023</ele>
        <time>2014-04-05T06:45:45Z</time>
      </trkpt>
      <trkpt lat="44.33426" lon="2.67601">
        <ele>721.1262207</ele>
        <time>2014-04-05T06:45:50Z</time>
      </trkpt>
      <trkpt lat="44.33423" lon="2.67605">
        <ele>721.6066895</ele>
        <time>2014-04-05T06:45:52Z</time>
      </trkpt>
      <trkpt lat="44.33416" lon="2.67615">
        <ele>721.1262207</ele>
        <time>2014-04-05T06:45:57Z</time>
      </trkpt>
      <trkpt lat="44.33399" lon="2.67629">
        <ele>726.894043</ele>
        <time>2014-04-05T06:46:05Z</time>
      </trkpt>
      <trkpt lat="44.33393" lon="2.67637">
        <ele>725.4519043</ele>
        <time>2014-04-05T06:46:10Z</time>
      </trkpt>
      <trkpt lat="44.33382" lon="2.67646">
        <ele>724.4907227</ele>
        <time>2014-04-05T06:46:17Z</time>
      </trkpt>
      <trkpt lat="44.33372" lon="2.67656">
        <ele>724.4907227</ele>
        <time>2014-04-05T06:46:24Z</time>
      </trkpt>
      <trkpt lat="44.33362" lon="2.67665">
        <ele>725.9326172</ele>
        <time>2014-04-05T06:46:30Z</time>
      </trkpt>
      <trkpt lat="44.3335" lon="2.67676">
        <ele>727.8552246</ele>
        <time>2014-04-05T06:46:37Z</time>
      </trkpt>
      <trkpt lat="44.3334" lon="2.67683">
        <ele>727.8552246</ele>
        <time>2014-04-05T06:46:43Z</time>
      </trkpt>
      <trkpt lat="44.33329" lon="2.67694">
        <ele>727.8552246</ele>
        <time>2014-04-05T06:46:50Z</time>
      </trkpt>
      <trkpt lat="44.33324" lon="2.677">
        <ele>728.3359375</ele>
        <time>2014-04-05T06:46:53Z</time>
      </trkpt>
      <trkpt lat="44.33323" lon="2.6771">
        <ele>729.2971191</ele>
        <time>2014-04-05T06:46:57Z</time>
      </trkpt>
      <trkpt lat="44.33324" lon="2.67717">
        <ele>729.777832</ele>
        <time>2014-04-05T06:47:00Z</time>
      </trkpt>
      <trkpt lat="44.33331" lon="2.67718">
        <ele>731.7004395</ele>
        <time>2014-04-05T06:47:05Z</time>
      </trkpt>
      <trkpt lat="44.33336" lon="2.67715">
        <ele>732.6621094</ele>
        <time>2014-04-05T06:47:08Z</time>
      </trkpt>
      <trkpt lat="44.33345" lon="2.67703">
        <ele>735.5458984</ele>
        <time>2014-04-05T06:47:14Z</time>
      </trkpt>
      <trkpt lat="44.33358" lon="2.67696">
        <ele>737.9492188</ele>
        <time>2014-04-05T06:47:21Z</time>
      </trkpt>
      <trkpt lat="44.3337" lon="2.67692">
        <ele>738.4299316</ele>
        <time>2014-04-05T06:47:27Z</time>
      </trkpt>
      <trkpt lat="44.3338" lon="2.67689">
        <ele>737.9492188</ele>
        <time>2014-04-05T06:47:32Z</time>
      </trkpt>
      <trkpt lat="44.33391" lon="2.67684">
        <ele>741.7944336</ele>
        <time>2014-04-05T06:47:38Z</time>
      </trkpt>
      <trkpt lat="44.33402" lon="2.67679">
        <ele>746.6010742</ele>
        <time>2014-04-05T06:47:44Z</time>
      </trkpt>
      <trkpt lat="44.33412" lon="2.67674">
        <ele>749.9658203</ele>
        <time>2014-04-05T06:47:50Z</time>
      </trkpt>
      <trkpt lat="44.33421" lon="2.67672">
        <ele>750.927002</ele>
        <time>2014-04-05T06:47:55Z</time>
      </trkpt>
      <trkpt lat="44.33433" lon="2.67668">
        <ele>750.927002</ele>
        <time>2014-04-05T06:48:02Z</time>
      </trkpt>
      <trkpt lat="44.33442" lon="2.67664">
        <ele>748.0432129</ele>
        <time>2014-04-05T06:48:07Z</time>
      </trkpt>
      <trkpt lat="44.33453" lon="2.67657">
        <ele>751.4077148</ele>
        <time>2014-04-05T06:48:13Z</time>
      </trkpt>
      <trkpt lat="44.33462" lon="2.67652">
        <ele>751.4077148</ele>
        <time>2014-04-05T06:48:18Z</time>
      </trkpt>
      <trkpt lat="44.33473" lon="2.67647">
        <ele>751.4077148</ele>
        <time>2014-04-05T06:48:24Z</time>
      </trkpt>
      <trkpt lat="44.33484" lon="2.67643">
        <ele>752.3688965</ele>
        <time>2014-04-05T06:48:29Z</time>
      </trkpt>
      <trkpt lat="44.33495" lon="2.6764">
        <ele>754.291748</ele>
        <time>2014-04-05T06:48:34Z</time>
      </trkpt>
      <trkpt lat="44.33506" lon="2.67638">
        <ele>757.1755371</ele>
        <time>2014-04-05T06:48:40Z</time>
      </trkpt>
      <trkpt lat="44.33519" lon="2.67639">
        <ele>758.6174316</ele>
        <time>2014-04-05T06:48:46Z</time>
      </trkpt>
      <trkpt lat="44.33522" lon="2.6764">
        <ele>757.65625</ele>
        <time>2014-04-05T06:48:48Z</time>
      </trkpt>
      <trkpt lat="44.33535" lon="2.67645">
        <ele>757.1755371</ele>
        <time>2014-04-05T06:48:55Z</time>
      </trkpt>
      <trkpt lat="44.3354" lon="2.67648">
        <ele>757.65625</ele>
        <time>2014-04-05T06:48:58Z</time>
      </trkpt>
      <trkpt lat="44.33547" lon="2.67655">
        <ele>755.2529297</ele>
        <time>2014-04-05T06:49:03Z</time>
      </trkpt>
      <trkpt lat="44.33557" lon="2.67668">
        <ele>753.8110352</ele>
        <time>2014-04-05T06:49:10Z</time>
      </trkpt>
      <trkpt lat="44.33567" lon="2.67683">
        <ele>752.8496094</ele>
        <time>2014-04-05T06:49:17Z</time>
      </trkpt>
      <trkpt lat="44.33579" lon="2.67696">
        <ele>756.6948242</ele>
        <time>2014-04-05T06:49:23Z</time>
      </trkpt>
      <trkpt lat="44.33593" lon="2.67708">
        <ele>760.0593262</ele>
        <time>2014-04-05T06:49:30Z</time>
      </trkpt>
      <trkpt lat="44.33605" lon="2.67711">
        <ele>763.4240723</ele>
        <time>2014-04-05T06:49:36Z</time>
      </trkpt>
      <trkpt lat="44.33617" lon="2.67711">
        <ele>765.8276367</ele>
        <time>2014-04-05T06:49:42Z</time>
      </trkpt>
      <trkpt lat="44.33631" lon="2.67712">
        <ele>769.6728516</ele>
        <time>2014-04-05T06:49:48Z</time>
      </trkpt>
      <trkpt lat="44.33642" lon="2.67713">
        <ele>773.0373535</ele>
        <time>2014-04-05T06:49:53Z</time>
      </trkpt>
      <trkpt lat="44.33655" lon="2.67714">
        <ele>776.4018555</ele>
        <time>2014-04-05T06:49:59Z</time>
      </trkpt>
      <trkpt lat="44.33665" lon="2.67716">
        <ele>777.3632813</ele>
        <time>2014-04-05T06:50:04Z</time>
      </trkpt>
      <trkpt lat="44.33674" lon="2.67718">
        <ele>778.3244629</ele>
        <time>2014-04-05T06:50:09Z</time>
      </trkpt>
      <trkpt lat="44.33688" lon="2.6772">
        <ele>779.7663574</ele>
        <time>2014-04-05T06:50:16Z</time>
      </trkpt>
      <trkpt lat="44.33701" lon="2.67722">
        <ele>782.1699219</ele>
        <time>2014-04-05T06:50:22Z</time>
      </trkpt>
      <trkpt lat="44.33713" lon="2.67723">
        <ele>783.1311035</ele>
        <time>2014-04-05T06:50:28Z</time>
      </trkpt>
      <trkpt lat="44.33725" lon="2.6772">
        <ele>786.4958496</ele>
        <time>2014-04-05T06:50:34Z</time>
      </trkpt>
      <trkpt lat="44.33737" lon="2.67714">
        <ele>787.4570313</ele>
        <time>2014-04-05T06:50:40Z</time>
      </trkpt>
      <trkpt lat="44.33747" lon="2.67706">
        <ele>786.9763184</ele>
        <time>2014-04-05T06:50:45Z</time>
      </trkpt>
      <trkpt lat="44.33758" lon="2.67696">
        <ele>785.0539551</ele>
        <time>2014-04-05T06:50:51Z</time>
      </trkpt>
      <trkpt lat="44.33766" lon="2.67685">
        <ele>783.1311035</ele>
        <time>2014-04-05T06:50:56Z</time>
      </trkpt>
      <trkpt lat="44.33773" lon="2.67669">
        <ele>781.2087402</ele>
        <time>2014-04-05T06:51:02Z</time>
      </trkpt>
      <trkpt lat="44.33779" lon="2.67657">
        <ele>781.689209</ele>
        <time>2014-04-05T06:51:07Z</time>
      </trkpt>
      <trkpt lat="44.33784" lon="2.67639">
        <ele>783.1311035</ele>
        <time>2014-04-05T06:51:13Z</time>
      </trkpt>
      <trkpt lat="44.33788" lon="2.67617">
        <ele>783.6118164</ele>
        <time>2014-04-05T06:51:19Z</time>
      </trkpt>
      <trkpt lat="44.33796" lon="2.67603">
        <ele>786.4958496</ele>
        <time>2014-04-05T06:51:24Z</time>
      </trkpt>
      <trkpt lat="44.33809" lon="2.67596">
        <ele>788.8991699</ele>
        <time>2014-04-05T06:51:30Z</time>
      </trkpt>
      <trkpt lat="44.3382" lon="2.6759">
        <ele>789.8603516</ele>
        <time>2014-04-05T06:51:35Z</time>
      </trkpt>
      <trkpt lat="44.33833" lon="2.67582">
        <ele>791.3022461</ele>
        <time>2014-04-05T06:51:41Z</time>
      </trkpt>
      <trkpt lat="44.33843" lon="2.67564">
        <ele>790.8215332</ele>
        <time>2014-04-05T06:51:48Z</time>
      </trkpt>
      <trkpt lat="44.33846" lon="2.67547">
        <ele>789.3796387</ele>
        <time>2014-04-05T06:51:53Z</time>
      </trkpt>
      <trkpt lat="44.3385" lon="2.6753">
        <ele>787.4570313</ele>
        <time>2014-04-05T06:51:58Z</time>
      </trkpt>
      <trkpt lat="44.33858" lon="2.6751">
        <ele>783.1311035</ele>
        <time>2014-04-05T06:52:04Z</time>
      </trkpt>
      <trkpt lat="44.33861" lon="2.67506">
        <ele>782.1699219</ele>
        <time>2014-04-05T06:52:06Z</time>
      </trkpt>
      <trkpt lat="44.33862" lon="2.67502">
        <ele>782.1699219</ele>
        <time>2014-04-05T06:52:13Z</time>
      </trkpt>
      <trkpt lat="44.33877" lon="2.67483">
        <ele>781.2087402</ele>
        <time>2014-04-05T06:52:21Z</time>
      </trkpt>
      <trkpt lat="44.33888" lon="2.67471">
        <ele>781.689209</ele>
        <time>2014-04-05T06:52:27Z</time>
      </trkpt>
      <trkpt lat="44.33899" lon="2.67458">
        <ele>780.2473145</ele>
        <time>2014-04-05T06:52:34Z</time>
      </trkpt>
      <trkpt lat="44.33911" lon="2.67442">
        <ele>778.8051758</ele>
        <time>2014-04-05T06:52:41Z</time>
      </trkpt>
      <trkpt lat="44.33922" lon="2.67431">
        <ele>778.8051758</ele>
        <time>2014-04-05T06:52:47Z</time>
      </trkpt>
      <trkpt lat="44.33936" lon="2.67417">
        <ele>778.8051758</ele>
        <time>2014-04-05T06:52:54Z</time>
      </trkpt>
      <trkpt lat="44.33952" lon="2.67402">
        <ele>777.84375</ele>
        <time>2014-04-05T06:53:02Z</time>
      </trkpt>
      <trkpt lat="44.33966" lon="2.67389">
        <ele>779.2856445</ele>
        <time>2014-04-05T06:53:08Z</time>
      </trkpt>
      <trkpt lat="44.33975" lon="2.67379">
        <ele>779.7663574</ele>
        <time>2014-04-05T06:53:12Z</time>
      </trkpt>
      <trkpt lat="44.33986" lon="2.67367">
        <ele>779.7663574</ele>
        <time>2014-04-05T06:53:17Z</time>
      </trkpt>
      <trkpt lat="44.33996" lon="2.67354">
        <ele>779.7663574</ele>
        <time>2014-04-05T06:53:22Z</time>
      </trkpt>
      <trkpt lat="44.34008" lon="2.67332">
        <ele>778.3244629</ele>
        <time>2014-04-05T06:53:29Z</time>
      </trkpt>
      <trkpt lat="44.34022" lon="2.67311">
        <ele>777.3632813</ele>
        <time>2014-04-05T06:53:36Z</time>
      </trkpt>
      <trkpt lat="44.34031" lon="2.67299">
        <ele>776.8825684</ele>
        <time>2014-04-05T06:53:41Z</time>
      </trkpt>
      <trkpt lat="44.34043" lon="2.67284">
        <ele>775.9211426</ele>
        <time>2014-04-05T06:53:47Z</time>
      </trkpt>
      <trkpt lat="44.34054" lon="2.67275">
        <ele>774.9599609</ele>
        <time>2014-04-05T06:53:52Z</time>
      </trkpt>
      <trkpt lat="44.34064" lon="2.67268">
        <ele>774.479248</ele>
        <time>2014-04-05T06:53:56Z</time>
      </trkpt>
      <trkpt lat="44.34072" lon="2.67259">
        <ele>773.9985352</ele>
        <time>2014-04-05T06:54:00Z</time>
      </trkpt>
      <trkpt lat="44.34085" lon="2.67245">
        <ele>773.0373535</ele>
        <time>2014-04-05T06:54:06Z</time>
      </trkpt>
      <trkpt lat="44.34097" lon="2.67229">
        <ele>772.0759277</ele>
        <time>2014-04-05T06:54:12Z</time>
      </trkpt>
      <trkpt lat="44.34107" lon="2.67217">
        <ele>770.1533203</ele>
        <time>2014-04-05T06:54:17Z</time>
      </trkpt>
      <trkpt lat="44.34118" lon="2.67203">
        <ele>768.7114258</ele>
        <time>2014-04-05T06:54:23Z</time>
      </trkpt>
      <trkpt lat="44.34124" lon="2.67195">
        <ele>767.2695313</ele>
        <time>2014-04-05T06:54:27Z</time>
      </trkpt>
      <trkpt lat="44.34136" lon="2.67184">
        <ele>765.3469238</ele>
        <time>2014-04-05T06:54:33Z</time>
      </trkpt>
      <trkpt lat="44.34149" lon="2.6717">
        <ele>765.8276367</ele>
        <time>2014-04-05T06:54:38Z</time>
      </trkpt>
      <trkpt lat="44.34158" lon="2.67162">
        <ele>766.3081055</ele>
        <time>2014-04-05T06:54:42Z</time>
      </trkpt>
      <trkpt lat="44.34169" lon="2.6715">
        <ele>765.3469238</ele>
        <time>2014-04-05T06:54:47Z</time>
      </trkpt>
      <trkpt lat="44.3418" lon="2.67139">
        <ele>765.8276367</ele>
        <time>2014-04-05T06:54:52Z</time>
      </trkpt>
      <trkpt lat="44.34193" lon="2.67132">
        <ele>764.8662109</ele>
        <time>2014-04-05T06:54:57Z</time>
      </trkpt>
      <trkpt lat="44.34209" lon="2.67123">
        <ele>763.4240723</ele>
        <time>2014-04-05T06:55:03Z</time>
      </trkpt>
      <trkpt lat="44.34224" lon="2.67112">
        <ele>761.5014648</ele>
        <time>2014-04-05T06:55:09Z</time>
      </trkpt>
      <trkpt lat="44.3424" lon="2.67103">
        <ele>759.5788574</ele>
        <time>2014-04-05T06:55:15Z</time>
      </trkpt>
      <trkpt lat="44.34251" lon="2.67091">
        <ele>757.1755371</ele>
        <time>2014-04-05T06:55:20Z</time>
      </trkpt>
      <trkpt lat="44.34262" lon="2.6708">
        <ele>754.7722168</ele>
        <time>2014-04-05T06:55:25Z</time>
      </trkpt>
      <trkpt lat="44.34275" lon="2.67062">
        <ele>751.8884277</ele>
        <time>2014-04-05T06:55:31Z</time>
      </trkpt>
      <trkpt lat="44.34281" lon="2.67049">
        <ele>749.4851074</ele>
        <time>2014-04-05T06:55:35Z</time>
      </trkpt>
      <trkpt lat="44.34288" lon="2.67032">
        <ele>746.6010742</ele>
        <time>2014-04-05T06:55:40Z</time>
      </trkpt>
      <trkpt lat="44.34295" lon="2.67015">
        <ele>744.1977539</ele>
        <time>2014-04-05T06:55:45Z</time>
      </trkpt>
      <trkpt lat="44.34303" lon="2.66998">
        <ele>740.3525391</ele>
        <time>2014-04-05T06:55:50Z</time>
      </trkpt>
      <trkpt lat="44.34314" lon="2.66981">
        <ele>737.4685059</ele>
        <time>2014-04-05T06:55:56Z</time>
      </trkpt>
      <trkpt lat="44.34323" lon="2.6697">
        <ele>735.5458984</ele>
        <time>2014-04-05T06:56:00Z</time>
      </trkpt>
      <trkpt lat="44.34336" lon="2.66954">
        <ele>734.5847168</ele>
        <time>2014-04-05T06:56:06Z</time>
      </trkpt>
      <trkpt lat="44.34343" lon="2.66944">
        <ele>733.623291</ele>
        <time>2014-04-05T06:56:10Z</time>
      </trkpt>
      <trkpt lat="44.34352" lon="2.66931">
        <ele>733.1425781</ele>
        <time>2014-04-05T06:56:15Z</time>
      </trkpt>
      <trkpt lat="44.34363" lon="2.66917">
        <ele>731.7004395</ele>
        <time>2014-04-05T06:56:20Z</time>
      </trkpt>
      <trkpt lat="44.34377" lon="2.66901">
        <ele>730.7392578</ele>
        <time>2014-04-05T06:56:26Z</time>
      </trkpt>
      <trkpt lat="44.34393" lon="2.66884">
        <ele>728.8166504</ele>
        <time>2014-04-05T06:56:33Z</time>
      </trkpt>
      <trkpt lat="44.34407" lon="2.66874">
        <ele>729.2971191</ele>
        <time>2014-04-05T06:56:39Z</time>
      </trkpt>
      <trkpt lat="44.34418" lon="2.66865">
        <ele>729.2971191</ele>
        <time>2014-04-05T06:56:44Z</time>
      </trkpt>
      <trkpt lat="44.34421" lon="2.66859">
        <ele>728.8166504</ele>
        <time>2014-04-05T06:56:46Z</time>
      </trkpt>
      <trkpt lat="44.34429" lon="2.66846">
        <ele>727.3747559</ele>
        <time>2014-04-05T06:56:51Z</time>
      </trkpt>
      <trkpt lat="44.34437" lon="2.66834">
        <ele>724.4907227</ele>
        <time>2014-04-05T06:56:55Z</time>
      </trkpt>
      <trkpt lat="44.34446" lon="2.66819">
        <ele>721.6066895</ele>
        <time>2014-04-05T06:57:00Z</time>
      </trkpt>
      <trkpt lat="44.34451" lon="2.66804">
        <ele>720.1647949</ele>
        <time>2014-04-05T06:57:04Z</time>
      </trkpt>
      <trkpt lat="44.34459" lon="2.66789">
        <ele>718.2421875</ele>
        <time>2014-04-05T06:57:08Z</time>
      </trkpt>
      <trkpt lat="44.34471" lon="2.66774">
        <ele>715.3581543</ele>
        <time>2014-04-05T06:57:13Z</time>
      </trkpt>
      <trkpt lat="44.34486" lon="2.66759">
        <ele>712.954834</ele>
        <time>2014-04-05T06:57:18Z</time>
      </trkpt>
      <trkpt lat="44.34497" lon="2.66745">
        <ele>711.5129395</ele>
        <time>2014-04-05T06:57:22Z</time>
      </trkpt>
      <trkpt lat="44.34513" lon="2.66731">
        <ele>707.6677246</ele>
        <time>2014-04-05T06:57:27Z</time>
      </trkpt>
      <trkpt lat="44.34531" lon="2.66715">
        <ele>702.861084</ele>
        <time>2014-04-05T06:57:33Z</time>
      </trkpt>
      <trkpt lat="44.34542" lon="2.66704">
        <ele>700.4580078</ele>
        <time>2014-04-05T06:57:38Z</time>
      </trkpt>
      <trkpt lat="44.34543" lon="2.66703">
        <ele>701.4191895</ele>
        <time>2014-04-05T06:57:41Z</time>
      </trkpt>
      <trkpt lat="44.34548" lon="2.66704">
        <ele>699.015625</ele>
        <time>2014-04-05T06:57:45Z</time>
      </trkpt>
      <trkpt lat="44.34553" lon="2.66707">
        <ele>697.5737305</ele>
        <time>2014-04-05T06:57:50Z</time>
      </trkpt>
      <trkpt lat="44.34557" lon="2.6671">
        <ele>696.6125488</ele>
        <time>2014-04-05T06:57:56Z</time>
      </trkpt>
      <trkpt lat="44.3456" lon="2.66707">
        <ele>697.0930176</ele>
        <time>2014-04-05T06:58:03Z</time>
      </trkpt>
      <trkpt lat="44.34558" lon="2.66705">
        <ele>697.5737305</ele>
        <time>2014-04-05T06:58:08Z</time>
      </trkpt>
      <trkpt lat="44.34553" lon="2.66696">
        <ele>699.015625</ele>
        <time>2014-04-05T06:58:13Z</time>
      </trkpt>
      <trkpt lat="44.34549" lon="2.66672">
        <ele>697.5737305</ele>
        <time>2014-04-05T06:58:20Z</time>
      </trkpt>
      <trkpt lat="44.34545" lon="2.66647">
        <ele>696.6125488</ele>
        <time>2014-04-05T06:58:27Z</time>
      </trkpt>
      <trkpt lat="44.34542" lon="2.66627">
        <ele>695.1704102</ele>
        <time>2014-04-05T06:58:32Z</time>
      </trkpt>
      <trkpt lat="44.34541" lon="2.66608">
        <ele>692.2866211</ele>
        <time>2014-04-05T06:58:37Z</time>
      </trkpt>
      <trkpt lat="44.34539" lon="2.66589">
        <ele>688.9221191</ele>
        <time>2014-04-05T06:58:42Z</time>
      </trkpt>
      <trkpt lat="44.34535" lon="2.66571">
        <ele>686.0380859</ele>
        <time>2014-04-05T06:58:47Z</time>
      </trkpt>
      <trkpt lat="44.34531" lon="2.66554">
        <ele>681.7119141</ele>
        <time>2014-04-05T06:58:52Z</time>
      </trkpt>
      <trkpt lat="44.34526" lon="2.6653">
        <ele>674.5021973</ele>
        <time>2014-04-05T06:58:58Z</time>
      </trkpt>
      <trkpt lat="44.34524" lon="2.66512">
        <ele>669.6958008</ele>
        <time>2014-04-05T06:59:03Z</time>
      </trkpt>
      <trkpt lat="44.34523" lon="2.66508">
        <ele>668.734375</ele>
        <time>2014-04-05T06:59:04Z</time>
      </trkpt>
      <trkpt lat="44.34529" lon="2.66495">
        <ele>664.888916</ele>
        <time>2014-04-05T06:59:09Z</time>
      </trkpt>
      <trkpt lat="44.34539" lon="2.66497">
        <ele>664.888916</ele>
        <time>2014-04-05T06:59:13Z</time>
      </trkpt>
      <trkpt lat="44.34549" lon="2.66499">
        <ele>664.888916</ele>
        <time>2014-04-05T06:59:17Z</time>
      </trkpt>
      <trkpt lat="44.34551" lon="2.66499">
        <ele>665.3696289</ele>
        <time>2014-04-05T06:59:18Z</time>
      </trkpt>
      <trkpt lat="44.34566" lon="2.66499">
        <ele>665.3696289</ele>
        <time>2014-04-05T06:59:24Z</time>
      </trkpt>
      <trkpt lat="44.34582" lon="2.66493">
        <ele>668.734375</ele>
        <time>2014-04-05T06:59:30Z</time>
      </trkpt>
      <trkpt lat="44.34596" lon="2.66486">
        <ele>671.6181641</ele>
        <time>2014-04-05T06:59:35Z</time>
      </trkpt>
      <trkpt lat="44.3461" lon="2.66488">
        <ele>669.6958008</ele>
        <time>2014-04-05T06:59:40Z</time>
      </trkpt>
      <trkpt lat="44.34623" lon="2.66491">
        <ele>667.7727051</ele>
        <time>2014-04-05T06:59:45Z</time>
      </trkpt>
      <trkpt lat="44.34636" lon="2.66494">
        <ele>665.8503418</ele>
        <time>2014-04-05T06:59:50Z</time>
      </trkpt>
      <trkpt lat="44.34648" lon="2.66496">
        <ele>662.4855957</ele>
        <time>2014-04-05T06:59:54Z</time>
      </trkpt>
      <trkpt lat="44.3466" lon="2.66497">
        <ele>657.1984863</ele>
        <time>2014-04-05T06:59:59Z</time>
      </trkpt>
      <trkpt lat="44.34669" lon="2.66498">
        <ele>654.795166</ele>
        <time>2014-04-05T07:00:02Z</time>
      </trkpt>
      <trkpt lat="44.34685" lon="2.66496">
        <ele>651.4304199</ele>
        <time>2014-04-05T07:00:07Z</time>
      </trkpt>
      <trkpt lat="44.34692" lon="2.66495">
        <ele>650.949707</ele>
        <time>2014-04-05T07:00:09Z</time>
      </trkpt>
      <trkpt lat="44.347" lon="2.66494">
        <ele>649.9885254</ele>
        <time>2014-04-05T07:00:12Z</time>
      </trkpt>
      <trkpt lat="44.34702" lon="2.66488">
        <ele>649.0270996</ele>
        <time>2014-04-05T07:00:16Z</time>
      </trkpt>
      <trkpt lat="44.34695" lon="2.66482">
        <ele>647.1044922</ele>
        <time>2014-04-05T07:00:19Z</time>
      </trkpt>
      <trkpt lat="44.34681" lon="2.6647">
        <ele>646.6240234</ele>
        <time>2014-04-05T07:00:25Z</time>
      </trkpt>
      <trkpt lat="44.34673" lon="2.66459">
        <ele>646.1433105</ele>
        <time>2014-04-05T07:00:30Z</time>
      </trkpt>
      <trkpt lat="44.34665" lon="2.6645">
        <ele>645.1818848</ele>
        <time>2014-04-05T07:00:34Z</time>
      </trkpt>
      <trkpt lat="44.34658" lon="2.66441">
        <ele>644.7011719</ele>
        <time>2014-04-05T07:00:38Z</time>
      </trkpt>
      <trkpt lat="44.34646" lon="2.66434">
        <ele>645.1818848</ele>
        <time>2014-04-05T07:00:42Z</time>
      </trkpt>
      <trkpt lat="44.34636" lon="2.66428">
        <ele>644.7011719</ele>
        <time>2014-04-05T07:00:46Z</time>
      </trkpt>
      <trkpt lat="44.34626" lon="2.66421">
        <ele>645.6625977</ele>
        <time>2014-04-05T07:00:50Z</time>
      </trkpt>
      <trkpt lat="44.34616" lon="2.66416">
        <ele>647.5852051</ele>
        <time>2014-04-05T07:00:55Z</time>
      </trkpt>
      <trkpt lat="44.34607" lon="2.66413">
        <ele>648.065918</ele>
        <time>2014-04-05T07:01:00Z</time>
      </trkpt>
      <trkpt lat="44.34599" lon="2.66412">
        <ele>647.1044922</ele>
        <time>2014-04-05T07:01:04Z</time>
      </trkpt>
      <trkpt lat="44.34591" lon="2.66412">
        <ele>647.5852051</ele>
        <time>2014-04-05T07:01:08Z</time>
      </trkpt>
      <trkpt lat="44.34577" lon="2.66411">
        <ele>649.9885254</ele>
        <time>2014-04-05T07:01:15Z</time>
      </trkpt>
      <trkpt lat="44.34569" lon="2.66413">
        <ele>649.9885254</ele>
        <time>2014-04-05T07:01:18Z</time>
      </trkpt>
      <trkpt lat="44.34566" lon="2.66413">
        <ele>650.4692383</ele>
        <time>2014-04-05T07:01:20Z</time>
      </trkpt>
      <trkpt lat="44.34555" lon="2.66414">
        <ele>648.5463867</ele>
        <time>2014-04-05T07:01:25Z</time>
      </trkpt>
      <trkpt lat="44.34544" lon="2.66417">
        <ele>650.949707</ele>
        <time>2014-04-05T07:01:30Z</time>
      </trkpt>
      <trkpt lat="44.34542" lon="2.66417">
        <ele>652.3918457</ele>
        <time>2014-04-05T07:01:31Z</time>
      </trkpt>
      <trkpt lat="44.34528" lon="2.66416">
        <ele>653.8339844</ele>
        <time>2014-04-05T07:01:37Z</time>
      </trkpt>
      <trkpt lat="44.34526" lon="2.66416">
        <ele>653.8339844</ele>
        <time>2014-04-05T07:01:38Z</time>
      </trkpt>
      <trkpt lat="44.34513" lon="2.66418">
        <ele>653.3532715</ele>
        <time>2014-04-05T07:01:43Z</time>
      </trkpt>
      <trkpt lat="44.34501" lon="2.66424">
        <ele>650.4692383</ele>
        <time>2014-04-05T07:01:48Z</time>
      </trkpt>
      <trkpt lat="44.34492" lon="2.6643">
        <ele>651.9111328</ele>
        <time>2014-04-05T07:01:52Z</time>
      </trkpt>
      <trkpt lat="44.34479" lon="2.66442">
        <ele>650.949707</ele>
        <time>2014-04-05T07:01:58Z</time>
      </trkpt>
      <trkpt lat="44.34467" lon="2.66452">
        <ele>649.9885254</ele>
        <time>2014-04-05T07:02:04Z</time>
      </trkpt>
      <trkpt lat="44.3446" lon="2.66457">
        <ele>649.0270996</ele>
        <time>2014-04-05T07:02:08Z</time>
      </trkpt>
      <trkpt lat="44.34453" lon="2.66462">
        <ele>649.5078125</ele>
        <time>2014-04-05T07:02:13Z</time>
      </trkpt>
      <trkpt lat="44.34449" lon="2.66464">
        <ele>649.9885254</ele>
        <time>2014-04-05T07:02:15Z</time>
      </trkpt>
      <trkpt lat="44.34438" lon="2.66476">
        <ele>654.795166</ele>
        <time>2014-04-05T07:02:22Z</time>
      </trkpt>
      <trkpt lat="44.34437" lon="2.66478">
        <ele>656.7177734</ele>
        <time>2014-04-05T07:02:23Z</time>
      </trkpt>
      <trkpt lat="44.3443" lon="2.66478">
        <ele>662.4855957</ele>
        <time>2014-04-05T07:02:26Z</time>
      </trkpt>
      <trkpt lat="44.34416" lon="2.66488">
        <ele>663.4470215</ele>
        <time>2014-04-05T07:02:34Z</time>
      </trkpt>
      <trkpt lat="44.34414" lon="2.66489">
        <ele>664.888916</ele>
        <time>2014-04-05T07:02:35Z</time>
      </trkpt>
      <trkpt lat="44.34406" lon="2.66497">
        <ele>662.4855957</ele>
        <time>2014-04-05T07:02:41Z</time>
      </trkpt>
      <trkpt lat="44.34401" lon="2.66503">
        <ele>662.4855957</ele>
        <time>2014-04-05T07:02:45Z</time>
      </trkpt>
      <trkpt lat="44.34398" lon="2.66507">
        <ele>661.5244141</ele>
        <time>2014-04-05T07:02:47Z</time>
      </trkpt>
      <trkpt lat="44.34391" lon="2.6652">
        <ele>662.4855957</ele>
        <time>2014-04-05T07:02:54Z</time>
      </trkpt>
      <trkpt lat="44.34388" lon="2.66532">
        <ele>663.9274902</ele>
        <time>2014-04-05T07:02:59Z</time>
      </trkpt>
      <trkpt lat="44.34374" lon="2.66547">
        <ele>668.2536621</ele>
        <time>2014-04-05T07:03:08Z</time>
      </trkpt>
      <trkpt lat="44.34372" lon="2.66548">
        <ele>668.734375</ele>
        <time>2014-04-05T07:03:09Z</time>
      </trkpt>
      <trkpt lat="44.34364" lon="2.66554">
        <ele>669.2150879</ele>
        <time>2014-04-05T07:03:14Z</time>
      </trkpt>
      <trkpt lat="44.3435" lon="2.66559">
        <ele>671.6181641</ele>
        <time>2014-04-05T07:03:20Z</time>
      </trkpt>
      <trkpt lat="44.3434" lon="2.66557">
        <ele>672.098877</ele>
        <time>2014-04-05T07:03:24Z</time>
      </trkpt>
      <trkpt lat="44.34324" lon="2.66553">
        <ele>670.1762695</ele>
        <time>2014-04-05T07:03:30Z</time>
      </trkpt>
      <trkpt lat="44.34309" lon="2.66551">
        <ele>672.5795898</ele>
        <time>2014-04-05T07:03:36Z</time>
      </trkpt>
      <trkpt lat="44.34297" lon="2.66549">
        <ele>673.5410156</ele>
        <time>2014-04-05T07:03:41Z</time>
      </trkpt>
      <trkpt lat="44.34286" lon="2.66554">
        <ele>673.0603027</ele>
        <time>2014-04-05T07:03:46Z</time>
      </trkpt>
      <trkpt lat="44.34283" lon="2.66558">
        <ele>673.5410156</ele>
        <time>2014-04-05T07:03:48Z</time>
      </trkpt>
      <trkpt lat="44.34272" lon="2.66567">
        <ele>676.9055176</ele>
        <time>2014-04-05T07:03:55Z</time>
      </trkpt>
      <trkpt lat="44.34267" lon="2.66572">
        <ele>679.3085938</ele>
        <time>2014-04-05T07:03:59Z</time>
      </trkpt>
      <trkpt lat="44.34265" lon="2.66576">
        <ele>679.7893066</ele>
        <time>2014-04-05T07:04:01Z</time>
      </trkpt>
      <trkpt lat="44.34263" lon="2.66583">
        <ele>682.192627</ele>
        <time>2014-04-05T07:04:04Z</time>
      </trkpt>
      <trkpt lat="44.34256" lon="2.6659">
        <ele>685.557373</ele>
        <time>2014-04-05T07:04:09Z</time>
      </trkpt>
      <trkpt lat="44.34253" lon="2.66592">
        <ele>689.4025879</ele>
        <time>2014-04-05T07:04:15Z</time>
      </trkpt>
      <trkpt lat="44.34251" lon="2.66592">
        <ele>688.9221191</ele>
        <time>2014-04-05T07:04:20Z</time>
      </trkpt>
      <trkpt lat="44.34246" lon="2.66589">
        <ele>694.6896973</ele>
        <time>2014-04-05T07:04:36Z</time>
      </trkpt>
      <trkpt lat="44.34243" lon="2.6659">
        <ele>693.2478027</ele>
        <time>2014-04-05T07:04:44Z</time>
      </trkpt>
      <trkpt lat="44.34238" lon="2.66595">
        <ele>690.3640137</ele>
        <time>2014-04-05T07:04:49Z</time>
      </trkpt>
      <trkpt lat="44.34227" lon="2.66602">
        <ele>688.4414063</ele>
        <time>2014-04-05T07:04:54Z</time>
      </trkpt>
      <trkpt lat="44.3422" lon="2.66609">
        <ele>686.0380859</ele>
        <time>2014-04-05T07:04:58Z</time>
      </trkpt>
      <trkpt lat="44.34208" lon="2.66619">
        <ele>686.0380859</ele>
        <time>2014-04-05T07:05:03Z</time>
      </trkpt>
      <trkpt lat="44.34202" lon="2.66621">
        <ele>686.9992676</ele>
        <time>2014-04-05T07:05:05Z</time>
      </trkpt>
      <trkpt lat="44.3419" lon="2.6663">
        <ele>686.5187988</ele>
        <time>2014-04-05T07:05:09Z</time>
      </trkpt>
      <trkpt lat="44.34183" lon="2.66646">
        <ele>680.7507324</ele>
        <time>2014-04-05T07:05:15Z</time>
      </trkpt>
      <trkpt lat="44.34178" lon="2.6665">
        <ele>678.3474121</ele>
        <time>2014-04-05T07:05:20Z</time>
      </trkpt>
      <trkpt lat="44.34169" lon="2.66655">
        <ele>677.3862305</ele>
        <time>2014-04-05T07:05:24Z</time>
      </trkpt>
      <trkpt lat="44.34168" lon="2.66657">
        <ele>680.2700195</ele>
        <time>2014-04-05T07:05:25Z</time>
      </trkpt>
      <trkpt lat="44.34159" lon="2.66663">
        <ele>682.6733398</ele>
        <time>2014-04-05T07:05:30Z</time>
      </trkpt>
      <trkpt lat="44.34154" lon="2.66666">
        <ele>683.1538086</ele>
        <time>2014-04-05T07:05:33Z</time>
      </trkpt>
      <trkpt lat="44.34141" lon="2.66668">
        <ele>681.2314453</ele>
        <time>2014-04-05T07:05:39Z</time>
      </trkpt>
      <trkpt lat="44.3413" lon="2.66663">
        <ele>679.3085938</ele>
        <time>2014-04-05T07:05:44Z</time>
      </trkpt>
      <trkpt lat="44.34122" lon="2.66662">
        <ele>679.3085938</ele>
        <time>2014-04-05T07:05:48Z</time>
      </trkpt>
      <trkpt lat="44.34119" lon="2.66663">
        <ele>678.828125</ele>
        <time>2014-04-05T07:05:49Z</time>
      </trkpt>
      <trkpt lat="44.3411" lon="2.66681">
        <ele>670.6569824</ele>
        <time>2014-04-05T07:05:55Z</time>
      </trkpt>
      <trkpt lat="44.34102" lon="2.66683">
        <ele>668.734375</ele>
        <time>2014-04-05T07:05:59Z</time>
      </trkpt>
      <trkpt lat="44.341" lon="2.66681">
        <ele>668.2536621</ele>
        <time>2014-04-05T07:06:00Z</time>
      </trkpt>
      <trkpt lat="44.34092" lon="2.66673">
        <ele>668.2536621</ele>
        <time>2014-04-05T07:06:04Z</time>
      </trkpt>
      <trkpt lat="44.34085" lon="2.66664">
        <ele>670.1762695</ele>
        <time>2014-04-05T07:06:09Z</time>
      </trkpt>
      <trkpt lat="44.34084" lon="2.66662">
        <ele>670.6569824</ele>
        <time>2014-04-05T07:06:10Z</time>
      </trkpt>
      <trkpt lat="44.34072" lon="2.66647">
        <ele>673.0603027</ele>
        <time>2014-04-05T07:06:18Z</time>
      </trkpt>
      <trkpt lat="44.34065" lon="2.66632">
        <ele>673.0603027</ele>
        <time>2014-04-05T07:06:24Z</time>
      </trkpt>
      <trkpt lat="44.34057" lon="2.6662">
        <ele>671.6181641</ele>
        <time>2014-04-05T07:06:29Z</time>
      </trkpt>
      <trkpt lat="44.34052" lon="2.66611">
        <ele>671.1376953</ele>
        <time>2014-04-05T07:06:33Z</time>
      </trkpt>
      <trkpt lat="44.34042" lon="2.66604">
        <ele>674.5021973</ele>
        <time>2014-04-05T07:06:38Z</time>
      </trkpt>
      <trkpt lat="44.3403" lon="2.66602">
        <ele>675.9440918</ele>
        <time>2014-04-05T07:06:44Z</time>
      </trkpt>
      <trkpt lat="44.34019" lon="2.66597">
        <ele>676.9055176</ele>
        <time>2014-04-05T07:06:49Z</time>
      </trkpt>
      <trkpt lat="44.34008" lon="2.66586">
        <ele>673.5410156</ele>
        <time>2014-04-05T07:06:54Z</time>
      </trkpt>
      <trkpt lat="44.34" lon="2.66574">
        <ele>671.6181641</ele>
        <time>2014-04-05T07:06:58Z</time>
      </trkpt>
      <trkpt lat="44.33996" lon="2.66557">
        <ele>666.8115234</ele>
        <time>2014-04-05T07:07:03Z</time>
      </trkpt>
      <trkpt lat="44.33986" lon="2.6654">
        <ele>661.0437012</ele>
        <time>2014-04-05T07:07:09Z</time>
      </trkpt>
      <trkpt lat="44.33978" lon="2.66527">
        <ele>657.6791992</ele>
        <time>2014-04-05T07:07:13Z</time>
      </trkpt>
      <trkpt lat="44.33963" lon="2.66525">
        <ele>653.8339844</ele>
        <time>2014-04-05T07:07:18Z</time>
      </trkpt>
      <trkpt lat="44.33959" lon="2.66524">
        <ele>654.795166</ele>
        <time>2014-04-05T07:07:20Z</time>
      </trkpt>
      <trkpt lat="44.33955" lon="2.6652">
        <ele>654.3146973</ele>
        <time>2014-04-05T07:07:23Z</time>
      </trkpt>
      <trkpt lat="44.3395" lon="2.66518">
        <ele>651.4304199</ele>
        <time>2014-04-05T07:07:26Z</time>
      </trkpt>
      <trkpt lat="44.33948" lon="2.6652">
        <ele>649.9885254</ele>
        <time>2014-04-05T07:07:28Z</time>
      </trkpt>
      <trkpt lat="44.33936" lon="2.66519">
        <ele>646.1433105</ele>
        <time>2014-04-05T07:07:33Z</time>
      </trkpt>
      <trkpt lat="44.33919" lon="2.66518">
        <ele>646.1433105</ele>
        <time>2014-04-05T07:07:38Z</time>
      </trkpt>
      <trkpt lat="44.33912" lon="2.66514">
        <ele>645.1818848</ele>
        <time>2014-04-05T07:07:41Z</time>
      </trkpt>
      <trkpt lat="44.33891" lon="2.66505">
        <ele>641.8173828</ele>
        <time>2014-04-05T07:07:48Z</time>
      </trkpt>
      <trkpt lat="44.33889" lon="2.66504">
        <ele>640.855957</ele>
        <time>2014-04-05T07:07:49Z</time>
      </trkpt>
      <trkpt lat="44.33878" lon="2.66497">
        <ele>636.5302734</ele>
        <time>2014-04-05T07:07:53Z</time>
      </trkpt>
      <trkpt lat="44.33859" lon="2.66485">
        <ele>632.2041016</ele>
        <time>2014-04-05T07:08:00Z</time>
      </trkpt>
      <trkpt lat="44.33846" lon="2.66478">
        <ele>627.8781738</ele>
        <time>2014-04-05T07:08:05Z</time>
      </trkpt>
      <trkpt lat="44.3383" lon="2.66473">
        <ele>625.4748535</ele>
        <time>2014-04-05T07:08:10Z</time>
      </trkpt>
      <trkpt lat="44.33818" lon="2.6647">
        <ele>622.1103516</ele>
        <time>2014-04-05T07:08:14Z</time>
      </trkpt>
      <trkpt lat="44.33812" lon="2.66469">
        <ele>620.668457</ele>
        <time>2014-04-05T07:08:16Z</time>
      </trkpt>
      <trkpt lat="44.33802" lon="2.66475">
        <ele>614.9003906</ele>
        <time>2014-04-05T07:08:20Z</time>
      </trkpt>
      <trkpt lat="44.33789" lon="2.66484">
        <ele>609.6132813</ele>
        <time>2014-04-05T07:08:25Z</time>
      </trkpt>
      <trkpt lat="44.3378" lon="2.66489">
        <ele>605.7680664</ele>
        <time>2014-04-05T07:08:30Z</time>
      </trkpt>
      <trkpt lat="44.33779" lon="2.66488">
        <ele>606.729248</ele>
        <time>2014-04-05T07:08:34Z</time>
      </trkpt>
      <trkpt lat="44.33779" lon="2.66472">
        <ele>605.7680664</ele>
        <time>2014-04-05T07:08:39Z</time>
      </trkpt>
      <trkpt lat="44.33781" lon="2.66465">
        <ele>605.7680664</ele>
        <time>2014-04-05T07:08:41Z</time>
      </trkpt>
      <trkpt lat="44.33779" lon="2.66446">
        <ele>605.2873535</ele>
        <time>2014-04-05T07:08:46Z</time>
      </trkpt>
      <trkpt lat="44.33774" lon="2.6643">
        <ele>605.2873535</ele>
        <time>2014-04-05T07:08:50Z</time>
      </trkpt>
      <trkpt lat="44.33779" lon="2.66423">
        <ele>607.6906738</ele>
        <time>2014-04-05T07:08:54Z</time>
      </trkpt>
      <trkpt lat="44.33787" lon="2.66428">
        <ele>611.5358887</ele>
        <time>2014-04-05T07:08:59Z</time>
      </trkpt>
      <trkpt lat="44.33802" lon="2.66427">
        <ele>616.822998</ele>
        <time>2014-04-05T07:09:04Z</time>
      </trkpt>
      <trkpt lat="44.33815" lon="2.66424">
        <ele>619.7070313</ele>
        <time>2014-04-05T07:09:08Z</time>
      </trkpt>
      <trkpt lat="44.33831" lon="2.66427">
        <ele>618.7456055</ele>
        <time>2014-04-05T07:09:13Z</time>
      </trkpt>
      <trkpt lat="44.3384" lon="2.6643">
        <ele>619.2263184</ele>
        <time>2014-04-05T07:09:16Z</time>
      </trkpt>
      <trkpt lat="44.33852" lon="2.66431">
        <ele>616.822998</ele>
        <time>2014-04-05T07:09:21Z</time>
      </trkpt>
      <trkpt lat="44.33858" lon="2.66429">
        <ele>609.6132813</ele>
        <time>2014-04-05T07:09:30Z</time>
      </trkpt>
      <trkpt lat="44.33873" lon="2.66428">
        <ele>614.4196777</ele>
        <time>2014-04-05T07:09:36Z</time>
      </trkpt>
      <trkpt lat="44.33877" lon="2.66428">
        <ele>614.9003906</ele>
        <time>2014-04-05T07:09:37Z</time>
      </trkpt>
      <trkpt lat="44.33892" lon="2.66426">
        <ele>615.3811035</ele>
        <time>2014-04-05T07:09:43Z</time>
      </trkpt>
      <trkpt lat="44.33904" lon="2.66423">
        <ele>615.8618164</ele>
        <time>2014-04-05T07:09:47Z</time>
      </trkpt>
      <trkpt lat="44.33917" lon="2.66414">
        <ele>611.0551758</ele>
        <time>2014-04-05T07:09:52Z</time>
      </trkpt>
      <trkpt lat="44.33929" lon="2.66405">
        <ele>607.2099609</ele>
        <time>2014-04-05T07:09:57Z</time>
      </trkpt>
      <trkpt lat="44.33931" lon="2.66403">
        <ele>606.729248</ele>
        <time>2014-04-05T07:09:58Z</time>
      </trkpt>
      <trkpt lat="44.33941" lon="2.66397">
        <ele>606.2485352</ele>
        <time>2014-04-05T07:10:02Z</time>
      </trkpt>
      <trkpt lat="44.33948" lon="2.66393">
        <ele>603.8452148</ele>
        <time>2014-04-05T07:10:05Z</time>
      </trkpt>
      <trkpt lat="44.33959" lon="2.66387">
        <ele>603.364502</ele>
        <time>2014-04-05T07:10:09Z</time>
      </trkpt>
      <trkpt lat="44.33976" lon="2.66384">
        <ele>605.7680664</ele>
        <time>2014-04-05T07:10:15Z</time>
      </trkpt>
      <trkpt lat="44.33991" lon="2.66385">
        <ele>609.6132813</ele>
        <time>2014-04-05T07:10:21Z</time>
      </trkpt>
      <trkpt lat="44.33999" lon="2.66385">
        <ele>610.09375</ele>
        <time>2014-04-05T07:10:26Z</time>
      </trkpt>
      <trkpt lat="44.34006" lon="2.66384">
        <ele>606.729248</ele>
        <time>2014-04-05T07:10:31Z</time>
      </trkpt>
      <trkpt lat="44.3401" lon="2.66384">
        <ele>605.7680664</ele>
        <time>2014-04-05T07:10:33Z</time>
      </trkpt>
      <trkpt lat="44.3402" lon="2.66382">
        <ele>604.3261719</ele>
        <time>2014-04-05T07:10:37Z</time>
      </trkpt>
      <trkpt lat="44.34031" lon="2.66379">
        <ele>604.3261719</ele>
        <time>2014-04-05T07:10:41Z</time>
      </trkpt>
      <trkpt lat="44.34042" lon="2.66377">
        <ele>608.6518555</ele>
        <time>2014-04-05T07:10:45Z</time>
      </trkpt>
      <trkpt lat="44.34051" lon="2.66374">
        <ele>611.0551758</ele>
        <time>2014-04-05T07:10:50Z</time>
      </trkpt>
      <trkpt lat="44.34058" lon="2.66374">
        <ele>612.4970703</ele>
        <time>2014-04-05T07:10:54Z</time>
      </trkpt>
      <trkpt lat="44.34068" lon="2.66372">
        <ele>613.9389648</ele>
        <time>2014-04-05T07:11:00Z</time>
      </trkpt>
      <trkpt lat="44.34075" lon="2.6637">
        <ele>616.3422852</ele>
        <time>2014-04-05T07:11:04Z</time>
      </trkpt>
      <trkpt lat="44.34084" lon="2.66364">
        <ele>615.8618164</ele>
        <time>2014-04-05T07:11:09Z</time>
      </trkpt>
      <trkpt lat="44.3409" lon="2.66359">
        <ele>615.8618164</ele>
        <time>2014-04-05T07:11:13Z</time>
      </trkpt>
      <trkpt lat="44.34095" lon="2.66353">
        <ele>616.3422852</ele>
        <time>2014-04-05T07:11:17Z</time>
      </trkpt>
      <trkpt lat="44.34103" lon="2.66347">
        <ele>615.3811035</ele>
        <time>2014-04-05T07:11:22Z</time>
      </trkpt>
      <trkpt lat="44.34108" lon="2.66339">
        <ele>617.3037109</ele>
        <time>2014-04-05T07:11:27Z</time>
      </trkpt>
      <trkpt lat="44.34114" lon="2.66327">
        <ele>620.668457</ele>
        <time>2014-04-05T07:11:33Z</time>
      </trkpt>
      <trkpt lat="44.34119" lon="2.66317">
        <ele>622.1103516</ele>
        <time>2014-04-05T07:11:38Z</time>
      </trkpt>
      <trkpt lat="44.34125" lon="2.66305">
        <ele>625.4748535</ele>
        <time>2014-04-05T07:11:45Z</time>
      </trkpt>
      <trkpt lat="44.34127" lon="2.66303">
        <ele>627.3977051</ele>
        <time>2014-04-05T07:11:47Z</time>
      </trkpt>
      <trkpt lat="44.34131" lon="2.66298">
        <ele>629.8007813</ele>
        <time>2014-04-05T07:11:51Z</time>
      </trkpt>
      <trkpt lat="44.34137" lon="2.66289">
        <ele>629.8007813</ele>
        <time>2014-04-05T07:11:58Z</time>
      </trkpt>
      <trkpt lat="44.34142" lon="2.66281">
        <ele>629.3200684</ele>
        <time>2014-04-05T07:12:03Z</time>
      </trkpt>
      <trkpt lat="44.34148" lon="2.66278">
        <ele>629.8007813</ele>
        <time>2014-04-05T07:12:07Z</time>
      </trkpt>
      <trkpt lat="44.34156" lon="2.6627">
        <ele>630.2814941</ele>
        <time>2014-04-05T07:12:13Z</time>
      </trkpt>
      <trkpt lat="44.34166" lon="2.6626">
        <ele>630.762207</ele>
        <time>2014-04-05T07:12:19Z</time>
      </trkpt>
      <trkpt lat="44.34167" lon="2.66258">
        <ele>631.2429199</ele>
        <time>2014-04-05T07:12:20Z</time>
      </trkpt>
      <trkpt lat="44.34176" lon="2.66253">
        <ele>634.126709</ele>
        <time>2014-04-05T07:12:25Z</time>
      </trkpt>
      <trkpt lat="44.34178" lon="2.66252">
        <ele>634.6074219</ele>
        <time>2014-04-05T07:12:26Z</time>
      </trkpt>
      <trkpt lat="44.34188" lon="2.66243">
        <ele>636.0495605</ele>
        <time>2014-04-05T07:12:33Z</time>
      </trkpt>
      <trkpt lat="44.34195" lon="2.66234">
        <ele>634.6074219</ele>
        <time>2014-04-05T07:12:38Z</time>
      </trkpt>
      <trkpt lat="44.34203" lon="2.66226">
        <ele>633.6459961</ele>
        <time>2014-04-05T07:12:44Z</time>
      </trkpt>
      <trkpt lat="44.34204" lon="2.66225">
        <ele>633.6459961</ele>
        <time>2014-04-05T07:12:45Z</time>
      </trkpt>
      <trkpt lat="44.34215" lon="2.66215">
        <ele>636.0495605</ele>
        <time>2014-04-05T07:12:52Z</time>
      </trkpt>
      <trkpt lat="44.34222" lon="2.66208">
        <ele>637.972168</ele>
        <time>2014-04-05T07:12:57Z</time>
      </trkpt>
      <trkpt lat="44.34232" lon="2.66198">
        <ele>640.855957</ele>
        <time>2014-04-05T07:13:04Z</time>
      </trkpt>
      <trkpt lat="44.34239" lon="2.6619">
        <ele>643.2592773</ele>
        <time>2014-04-05T07:13:09Z</time>
      </trkpt>
      <trkpt lat="44.34241" lon="2.66188">
        <ele>643.2592773</ele>
        <time>2014-04-05T07:13:10Z</time>
      </trkpt>
      <trkpt lat="44.34247" lon="2.66176">
        <ele>640.855957</ele>
        <time>2014-04-05T07:13:17Z</time>
      </trkpt>
      <trkpt lat="44.34252" lon="2.6616">
        <ele>640.3754883</ele>
        <time>2014-04-05T07:13:24Z</time>
      </trkpt>
      <trkpt lat="44.34253" lon="2.66158">
        <ele>640.3754883</ele>
        <time>2014-04-05T07:13:25Z</time>
      </trkpt>
      <trkpt lat="44.34259" lon="2.66141">
        <ele>639.4140625</ele>
        <time>2014-04-05T07:13:32Z</time>
      </trkpt>
      <trkpt lat="44.34263" lon="2.66132">
        <ele>640.3754883</ele>
        <time>2014-04-05T07:13:36Z</time>
      </trkpt>
      <trkpt lat="44.34266" lon="2.66118">
        <ele>639.4140625</ele>
        <time>2014-04-05T07:13:42Z</time>
      </trkpt>
      <trkpt lat="44.34262" lon="2.66105">
        <ele>639.8947754</ele>
        <time>2014-04-05T07:13:47Z</time>
      </trkpt>
      <trkpt lat="44.3426" lon="2.66089">
        <ele>644.7011719</ele>
        <time>2014-04-05T07:13:53Z</time>
      </trkpt>
      <trkpt lat="44.34258" lon="2.6608">
        <ele>647.5852051</ele>
        <time>2014-04-05T07:13:56Z</time>
      </trkpt>
      <trkpt lat="44.34253" lon="2.66066">
        <ele>651.4304199</ele>
        <time>2014-04-05T07:14:01Z</time>
      </trkpt>
      <trkpt lat="44.34253" lon="2.66062">
        <ele>653.3532715</ele>
        <time>2014-04-05T07:14:02Z</time>
      </trkpt>
      <trkpt lat="44.34252" lon="2.66051">
        <ele>654.3146973</ele>
        <time>2014-04-05T07:14:06Z</time>
      </trkpt>
      <trkpt lat="44.34251" lon="2.66046">
        <ele>654.3146973</ele>
        <time>2014-04-05T07:14:08Z</time>
      </trkpt>
      <trkpt lat="44.3425" lon="2.66029">
        <ele>657.1984863</ele>
        <time>2014-04-05T07:14:14Z</time>
      </trkpt>
      <trkpt lat="44.34249" lon="2.66019">
        <ele>658.1599121</ele>
        <time>2014-04-05T07:14:18Z</time>
      </trkpt>
      <trkpt lat="44.34246" lon="2.66005">
        <ele>655.7565918</ele>
        <time>2014-04-05T07:14:25Z</time>
      </trkpt>
      <trkpt lat="44.34246" lon="2.65998">
        <ele>655.2758789</ele>
        <time>2014-04-05T07:14:29Z</time>
      </trkpt>
      <trkpt lat="44.34242" lon="2.65987">
        <ele>653.3532715</ele>
        <time>2014-04-05T07:14:34Z</time>
      </trkpt>
      <trkpt lat="44.34239" lon="2.65974">
        <ele>653.8339844</ele>
        <time>2014-04-05T07:14:40Z</time>
      </trkpt>
      <trkpt lat="44.34237" lon="2.65963">
        <ele>654.3146973</ele>
        <time>2014-04-05T07:14:44Z</time>
      </trkpt>
      <trkpt lat="44.34236" lon="2.65958">
        <ele>654.3146973</ele>
        <time>2014-04-05T07:14:46Z</time>
      </trkpt>
      <trkpt lat="44.34233" lon="2.65945">
        <ele>652.8725586</ele>
        <time>2014-04-05T07:14:53Z</time>
      </trkpt>
      <trkpt lat="44.34232" lon="2.65934">
        <ele>656.2370605</ele>
        <time>2014-04-05T07:14:59Z</time>
      </trkpt>
      <trkpt lat="44.3423" lon="2.65928">
        <ele>658.1599121</ele>
        <time>2014-04-05T07:15:03Z</time>
      </trkpt>
      <trkpt lat="44.34226" lon="2.65919">
        <ele>658.1599121</ele>
        <time>2014-04-05T07:15:08Z</time>
      </trkpt>
      <trkpt lat="44.34217" lon="2.65912">
        <ele>658.1599121</ele>
        <time>2014-04-05T07:15:15Z</time>
      </trkpt>
      <trkpt lat="44.34208" lon="2.65905">
        <ele>659.6018066</ele>
        <time>2014-04-05T07:15:21Z</time>
      </trkpt>
      <trkpt lat="44.34206" lon="2.65905">
        <ele>659.6018066</ele>
        <time>2014-04-05T07:15:22Z</time>
      </trkpt>
      <trkpt lat="44.34196" lon="2.65895">
        <ele>662.9663086</ele>
        <time>2014-04-05T07:15:29Z</time>
      </trkpt>
      <trkpt lat="44.3419" lon="2.65887">
        <ele>665.8503418</ele>
        <time>2014-04-05T07:15:33Z</time>
      </trkpt>
      <trkpt lat="44.34183" lon="2.65883">
        <ele>668.2536621</ele>
        <time>2014-04-05T07:15:38Z</time>
      </trkpt>
      <trkpt lat="44.34182" lon="2.65882">
        <ele>668.2536621</ele>
        <time>2014-04-05T07:15:39Z</time>
      </trkpt>
      <trkpt lat="44.34172" lon="2.65875">
        <ele>669.6958008</ele>
        <time>2014-04-05T07:15:45Z</time>
      </trkpt>
      <trkpt lat="44.34169" lon="2.65874">
        <ele>671.1376953</ele>
        <time>2014-04-05T07:15:47Z</time>
      </trkpt>
      <trkpt lat="44.34163" lon="2.65871">
        <ele>672.098877</ele>
        <time>2014-04-05T07:15:52Z</time>
      </trkpt>
      <trkpt lat="44.34152" lon="2.65868">
        <ele>675.4633789</ele>
        <time>2014-04-05T07:15:59Z</time>
      </trkpt>
      <trkpt lat="44.3415" lon="2.65867">
        <ele>675.9440918</ele>
        <time>2014-04-05T07:16:00Z</time>
      </trkpt>
      <trkpt lat="44.34146" lon="2.65865">
        <ele>677.3862305</ele>
        <time>2014-04-05T07:16:03Z</time>
      </trkpt>
      <trkpt lat="44.34139" lon="2.65865">
        <ele>674.5021973</ele>
        <time>2014-04-05T07:16:09Z</time>
      </trkpt>
      <trkpt lat="44.34135" lon="2.65865">
        <ele>674.5021973</ele>
        <time>2014-04-05T07:16:12Z</time>
      </trkpt>
      <trkpt lat="44.34127" lon="2.6586">
        <ele>677.8666992</ele>
        <time>2014-04-05T07:16:19Z</time>
      </trkpt>
      <trkpt lat="44.34118" lon="2.65854">
        <ele>680.7507324</ele>
        <time>2014-04-05T07:16:26Z</time>
      </trkpt>
      <trkpt lat="44.3411" lon="2.6585">
        <ele>683.6345215</ele>
        <time>2014-04-05T07:16:32Z</time>
      </trkpt>
      <trkpt lat="44.34108" lon="2.65849">
        <ele>683.6345215</ele>
        <time>2014-04-05T07:16:34Z</time>
      </trkpt>
      <trkpt lat="44.341" lon="2.65846">
        <ele>686.0380859</ele>
        <time>2014-04-05T07:16:39Z</time>
      </trkpt>
      <trkpt lat="44.34091" lon="2.65846">
        <ele>685.0769043</ele>
        <time>2014-04-05T07:16:43Z</time>
      </trkpt>
      <trkpt lat="44.34077" lon="2.65844">
        <ele>683.1538086</ele>
        <time>2014-04-05T07:16:49Z</time>
      </trkpt>
      <trkpt lat="44.34062" lon="2.65848">
        <ele>682.192627</ele>
        <time>2014-04-05T07:16:55Z</time>
      </trkpt>
      <trkpt lat="44.3405" lon="2.6585">
        <ele>681.2314453</ele>
        <time>2014-04-05T07:17:01Z</time>
      </trkpt>
      <trkpt lat="44.34048" lon="2.65851">
        <ele>682.192627</ele>
        <time>2014-04-05T07:17:02Z</time>
      </trkpt>
      <trkpt lat="44.34033" lon="2.65852">
        <ele>685.557373</ele>
        <time>2014-04-05T07:17:08Z</time>
      </trkpt>
      <trkpt lat="44.34023" lon="2.65856">
        <ele>687.4799805</ele>
        <time>2014-04-05T07:17:13Z</time>
      </trkpt>
      <trkpt lat="44.34019" lon="2.65857">
        <ele>687.4799805</ele>
        <time>2014-04-05T07:17:15Z</time>
      </trkpt>
      <trkpt lat="44.34009" lon="2.6586">
        <ele>689.4025879</ele>
        <time>2014-04-05T07:17:19Z</time>
      </trkpt>
      <trkpt lat="44.33994" lon="2.65869">
        <ele>691.8059082</ele>
        <time>2014-04-05T07:17:25Z</time>
      </trkpt>
      <trkpt lat="44.3398" lon="2.65878">
        <ele>691.8059082</ele>
        <time>2014-04-05T07:17:30Z</time>
      </trkpt>
      <trkpt lat="44.3397" lon="2.65884">
        <ele>691.3251953</ele>
        <time>2014-04-05T07:17:34Z</time>
      </trkpt>
      <trkpt lat="44.33955" lon="2.65885">
        <ele>690.8444824</ele>
        <time>2014-04-05T07:17:39Z</time>
      </trkpt>
      <trkpt lat="44.33942" lon="2.65885">
        <ele>691.8059082</ele>
        <time>2014-04-05T07:17:45Z</time>
      </trkpt>
      <trkpt lat="44.3394" lon="2.65885">
        <ele>691.8059082</ele>
        <time>2014-04-05T07:17:46Z</time>
      </trkpt>
      <trkpt lat="44.3393" lon="2.65886">
        <ele>691.3251953</ele>
        <time>2014-04-05T07:17:51Z</time>
      </trkpt>
      <trkpt lat="44.3392" lon="2.65872">
        <ele>690.8444824</ele>
        <time>2014-04-05T07:17:57Z</time>
      </trkpt>
      <trkpt lat="44.33916" lon="2.65862">
        <ele>689.8833008</ele>
        <time>2014-04-05T07:18:00Z</time>
      </trkpt>
      <trkpt lat="44.33913" lon="2.65862">
        <ele>690.3640137</ele>
        <time>2014-04-05T07:18:04Z</time>
      </trkpt>
      <trkpt lat="44.33912" lon="2.65862">
        <ele>691.3251953</ele>
        <time>2014-04-05T07:18:10Z</time>
      </trkpt>
      <trkpt lat="44.33912" lon="2.65861">
        <ele>691.8059082</ele>
        <time>2014-04-05T07:18:11Z</time>
      </trkpt>
      <trkpt lat="44.33912" lon="2.65851">
        <ele>690.8444824</ele>
        <time>2014-04-05T07:18:17Z</time>
      </trkpt>
      <trkpt lat="44.33912" lon="2.65848">
        <ele>689.8833008</ele>
        <time>2014-04-05T07:18:22Z</time>
      </trkpt>
      <trkpt lat="44.33911" lon="2.65847">
        <ele>689.8833008</ele>
        <time>2014-04-05T07:18:23Z</time>
      </trkpt>
      <trkpt lat="44.33907" lon="2.65832">
        <ele>689.4025879</ele>
        <time>2014-04-05T07:18:28Z</time>
      </trkpt>
      <trkpt lat="44.33906" lon="2.65829">
        <ele>689.4025879</ele>
        <time>2014-04-05T07:18:29Z</time>
      </trkpt>
      <trkpt lat="44.339" lon="2.6581">
        <ele>688.4414063</ele>
        <time>2014-04-05T07:18:34Z</time>
      </trkpt>
      <trkpt lat="44.33902" lon="2.65788">
        <ele>688.4414063</ele>
        <time>2014-04-05T07:18:40Z</time>
      </trkpt>
      <trkpt lat="44.33907" lon="2.65768">
        <ele>689.4025879</ele>
        <time>2014-04-05T07:18:46Z</time>
      </trkpt>
      <trkpt lat="44.33913" lon="2.6574">
        <ele>688.9221191</ele>
        <time>2014-04-05T07:18:53Z</time>
      </trkpt>
      <trkpt lat="44.33919" lon="2.65716">
        <ele>689.4025879</ele>
        <time>2014-04-05T07:18:59Z</time>
      </trkpt>
      <trkpt lat="44.33925" lon="2.65687">
        <ele>690.8444824</ele>
        <time>2014-04-05T07:19:06Z</time>
      </trkpt>
      <trkpt lat="44.33929" lon="2.65666">
        <ele>691.8059082</ele>
        <time>2014-04-05T07:19:11Z</time>
      </trkpt>
      <trkpt lat="44.33933" lon="2.65643">
        <ele>691.8059082</ele>
        <time>2014-04-05T07:19:17Z</time>
      </trkpt>
      <trkpt lat="44.33938" lon="2.65624">
        <ele>692.2866211</ele>
        <time>2014-04-05T07:19:22Z</time>
      </trkpt>
      <trkpt lat="44.33948" lon="2.65602">
        <ele>692.767334</ele>
        <time>2014-04-05T07:19:28Z</time>
      </trkpt>
      <trkpt lat="44.33956" lon="2.65585">
        <ele>693.7285156</ele>
        <time>2014-04-05T07:19:33Z</time>
      </trkpt>
      <trkpt lat="44.33963" lon="2.65566">
        <ele>694.2092285</ele>
        <time>2014-04-05T07:19:38Z</time>
      </trkpt>
      <trkpt lat="44.33968" lon="2.65546">
        <ele>694.2092285</ele>
        <time>2014-04-05T07:19:43Z</time>
      </trkpt>
      <trkpt lat="44.33975" lon="2.65523">
        <ele>693.7285156</ele>
        <time>2014-04-05T07:19:49Z</time>
      </trkpt>
      <trkpt lat="44.33982" lon="2.65499">
        <ele>692.2866211</ele>
        <time>2014-04-05T07:19:55Z</time>
      </trkpt>
      <trkpt lat="44.33989" lon="2.6548">
        <ele>691.3251953</ele>
        <time>2014-04-05T07:20:00Z</time>
      </trkpt>
      <trkpt lat="44.33994" lon="2.65464">
        <ele>690.3640137</ele>
        <time>2014-04-05T07:20:04Z</time>
      </trkpt>
      <trkpt lat="44.34002" lon="2.65443">
        <ele>688.4414063</ele>
        <time>2014-04-05T07:20:10Z</time>
      </trkpt>
      <trkpt lat="44.34012" lon="2.65418">
        <ele>687.9606934</ele>
        <time>2014-04-05T07:20:17Z</time>
      </trkpt>
      <trkpt lat="44.3402" lon="2.65399">
        <ele>688.4414063</ele>
        <time>2014-04-05T07:20:22Z</time>
      </trkpt>
      <trkpt lat="44.34029" lon="2.65376">
        <ele>687.9606934</ele>
        <time>2014-04-05T07:20:28Z</time>
      </trkpt>
      <trkpt lat="44.34037" lon="2.65357">
        <ele>686.5187988</ele>
        <time>2014-04-05T07:20:33Z</time>
      </trkpt>
      <trkpt lat="44.3405" lon="2.65335">
        <ele>685.0769043</ele>
        <time>2014-04-05T07:20:40Z</time>
      </trkpt>
      <trkpt lat="44.34063" lon="2.65317">
        <ele>683.1538086</ele>
        <time>2014-04-05T07:20:46Z</time>
      </trkpt>
      <trkpt lat="44.34075" lon="2.65298">
        <ele>683.1538086</ele>
        <time>2014-04-05T07:20:52Z</time>
      </trkpt>
      <trkpt lat="44.34086" lon="2.65282">
        <ele>682.6733398</ele>
        <time>2014-04-05T07:20:57Z</time>
      </trkpt>
      <trkpt lat="44.341" lon="2.6526">
        <ele>681.7119141</ele>
        <time>2014-04-05T07:21:04Z</time>
      </trkpt>
      <trkpt lat="44.34113" lon="2.65243">
        <ele>680.2700195</ele>
        <time>2014-04-05T07:21:10Z</time>
      </trkpt>
      <trkpt lat="44.34123" lon="2.65228">
        <ele>680.2700195</ele>
        <time>2014-04-05T07:21:15Z</time>
      </trkpt>
      <trkpt lat="44.34137" lon="2.65211">
        <ele>679.3085938</ele>
        <time>2014-04-05T07:21:21Z</time>
      </trkpt>
      <trkpt lat="44.34147" lon="2.65197">
        <ele>678.828125</ele>
        <time>2014-04-05T07:21:26Z</time>
      </trkpt>
      <trkpt lat="44.3416" lon="2.65177">
        <ele>678.3474121</ele>
        <time>2014-04-05T07:21:32Z</time>
      </trkpt>
      <trkpt lat="44.34169" lon="2.65166">
        <ele>677.3862305</ele>
        <time>2014-04-05T07:21:36Z</time>
      </trkpt>
      <trkpt lat="44.34177" lon="2.65148">
        <ele>675.9440918</ele>
        <time>2014-04-05T07:21:41Z</time>
      </trkpt>
      <trkpt lat="44.34177" lon="2.65131">
        <ele>675.9440918</ele>
        <time>2014-04-05T07:21:45Z</time>
      </trkpt>
      <trkpt lat="44.34174" lon="2.65111">
        <ele>675.9440918</ele>
        <time>2014-04-05T07:21:50Z</time>
      </trkpt>
      <trkpt lat="44.34171" lon="2.65085">
        <ele>674.9829102</ele>
        <time>2014-04-05T07:21:56Z</time>
      </trkpt>
      <trkpt lat="44.34167" lon="2.65061">
        <ele>674.0214844</ele>
        <time>2014-04-05T07:22:02Z</time>
      </trkpt>
      <trkpt lat="44.34162" lon="2.65041">
        <ele>673.5410156</ele>
        <time>2014-04-05T07:22:07Z</time>
      </trkpt>
      <trkpt lat="44.34158" lon="2.65021">
        <ele>673.5410156</ele>
        <time>2014-04-05T07:22:12Z</time>
      </trkpt>
      <trkpt lat="44.34154" lon="2.64998">
        <ele>672.098877</ele>
        <time>2014-04-05T07:22:18Z</time>
      </trkpt>
      <trkpt lat="44.34151" lon="2.64975">
        <ele>670.6569824</ele>
        <time>2014-04-05T07:22:23Z</time>
      </trkpt>
      <trkpt lat="44.34149" lon="2.64952">
        <ele>669.6958008</ele>
        <time>2014-04-05T07:22:28Z</time>
      </trkpt>
      <trkpt lat="44.34148" lon="2.64929">
        <ele>669.6958008</ele>
        <time>2014-04-05T07:22:33Z</time>
      </trkpt>
      <trkpt lat="44.34145" lon="2.64903">
        <ele>670.1762695</ele>
        <time>2014-04-05T07:22:39Z</time>
      </trkpt>
      <trkpt lat="44.34142" lon="2.64876">
        <ele>669.6958008</ele>
        <time>2014-04-05T07:22:45Z</time>
      </trkpt>
      <trkpt lat="44.3414" lon="2.64848">
        <ele>667.7727051</ele>
        <time>2014-04-05T07:22:51Z</time>
      </trkpt>
      <trkpt lat="44.34138" lon="2.64827">
        <ele>665.3696289</ele>
        <time>2014-04-05T07:22:57Z</time>
      </trkpt>
      <trkpt lat="44.34137" lon="2.64811">
        <ele>664.4082031</ele>
        <time>2014-04-05T07:23:04Z</time>
      </trkpt>
      <trkpt lat="44.34137" lon="2.64796">
        <ele>662.4855957</ele>
        <time>2014-04-05T07:23:08Z</time>
      </trkpt>
      <trkpt lat="44.34135" lon="2.64781">
        <ele>661.5244141</ele>
        <time>2014-04-05T07:23:12Z</time>
      </trkpt>
      <trkpt lat="44.34133" lon="2.64767">
        <ele>660.5629883</ele>
        <time>2014-04-05T07:23:16Z</time>
      </trkpt>
      <trkpt lat="44.34131" lon="2.64753">
        <ele>660.5629883</ele>
        <time>2014-04-05T07:23:20Z</time>
      </trkpt>
      <trkpt lat="44.34128" lon="2.6474">
        <ele>658.6403809</ele>
        <time>2014-04-05T07:23:24Z</time>
      </trkpt>
      <trkpt lat="44.34122" lon="2.6472">
        <ele>657.6791992</ele>
        <time>2014-04-05T07:23:30Z</time>
      </trkpt>
      <trkpt lat="44.34116" lon="2.64704">
        <ele>657.6791992</ele>
        <time>2014-04-05T07:23:35Z</time>
      </trkpt>
      <trkpt lat="44.34111" lon="2.64688">
        <ele>656.2370605</ele>
        <time>2014-04-05T07:23:41Z</time>
      </trkpt>
      <trkpt lat="44.3411" lon="2.64683">
        <ele>656.2370605</ele>
        <time>2014-04-05T07:23:43Z</time>
      </trkpt>
      <trkpt lat="44.34108" lon="2.64679">
        <ele>656.7177734</ele>
        <time>2014-04-05T07:23:47Z</time>
      </trkpt>
      <trkpt lat="44.34103" lon="2.64662">
        <ele>656.7177734</ele>
        <time>2014-04-05T07:23:52Z</time>
      </trkpt>
      <trkpt lat="44.341" lon="2.64644">
        <ele>656.7177734</ele>
        <time>2014-04-05T07:23:57Z</time>
      </trkpt>
      <trkpt lat="44.34092" lon="2.64614">
        <ele>657.1984863</ele>
        <time>2014-04-05T07:24:05Z</time>
      </trkpt>
      <trkpt lat="44.3409" lon="2.64605">
        <ele>657.1984863</ele>
        <time>2014-04-05T07:24:07Z</time>
      </trkpt>
      <trkpt lat="44.34087" lon="2.6459">
        <ele>657.6791992</ele>
        <time>2014-04-05T07:24:11Z</time>
      </trkpt>
      <trkpt lat="44.34083" lon="2.64574">
        <ele>658.6403809</ele>
        <time>2014-04-05T07:24:15Z</time>
      </trkpt>
      <trkpt lat="44.34076" lon="2.64546">
        <ele>660.5629883</ele>
        <time>2014-04-05T07:24:22Z</time>
      </trkpt>
      <trkpt lat="44.34072" lon="2.64523">
        <ele>662.005127</ele>
        <time>2014-04-05T07:24:28Z</time>
      </trkpt>
      <trkpt lat="44.34069" lon="2.645">
        <ele>661.5244141</ele>
        <time>2014-04-05T07:24:34Z</time>
      </trkpt>
      <trkpt lat="44.34067" lon="2.64477">
        <ele>660.0822754</ele>
        <time>2014-04-05T07:24:40Z</time>
      </trkpt>
      <trkpt lat="44.34069" lon="2.64455">
        <ele>660.5629883</ele>
        <time>2014-04-05T07:24:46Z</time>
      </trkpt>
      <trkpt lat="44.34072" lon="2.64428">
        <ele>660.0822754</ele>
        <time>2014-04-05T07:24:53Z</time>
      </trkpt>
      <trkpt lat="44.34071" lon="2.64408">
        <ele>660.0822754</ele>
        <time>2014-04-05T07:24:58Z</time>
      </trkpt>
      <trkpt lat="44.34066" lon="2.64386">
        <ele>660.5629883</ele>
        <time>2014-04-05T07:25:04Z</time>
      </trkpt>
      <trkpt lat="44.34061" lon="2.64362">
        <ele>661.0437012</ele>
        <time>2014-04-05T07:25:10Z</time>
      </trkpt>
      <trkpt lat="44.3406" lon="2.64342">
        <ele>661.5244141</ele>
        <time>2014-04-05T07:25:15Z</time>
      </trkpt>
      <trkpt lat="44.34059" lon="2.6432">
        <ele>662.4855957</ele>
        <time>2014-04-05T07:25:21Z</time>
      </trkpt>
      <trkpt lat="44.34058" lon="2.64305">
        <ele>663.9274902</ele>
        <time>2014-04-05T07:25:25Z</time>
      </trkpt>
      <trkpt lat="44.34056" lon="2.64283">
        <ele>664.888916</ele>
        <time>2014-04-05T07:25:31Z</time>
      </trkpt>
      <trkpt lat="44.34052" lon="2.64261">
        <ele>665.3696289</ele>
        <time>2014-04-05T07:25:37Z</time>
      </trkpt>
      <trkpt lat="44.3405" lon="2.64244">
        <ele>665.3696289</ele>
        <time>2014-04-05T07:25:42Z</time>
      </trkpt>
      <trkpt lat="44.34053" lon="2.64229">
        <ele>665.8503418</ele>
        <time>2014-04-05T07:25:46Z</time>
      </trkpt>
      <trkpt lat="44.34063" lon="2.64209">
        <ele>665.8503418</ele>
        <time>2014-04-05T07:25:52Z</time>
      </trkpt>
      <trkpt lat="44.34071" lon="2.64189">
        <ele>667.2922363</ele>
        <time>2014-04-05T07:25:58Z</time>
      </trkpt>
      <trkpt lat="44.3408" lon="2.64167">
        <ele>666.8115234</ele>
        <time>2014-04-05T07:26:04Z</time>
      </trkpt>
      <trkpt lat="44.34086" lon="2.64149">
        <ele>666.8115234</ele>
        <time>2014-04-05T07:26:09Z</time>
      </trkpt>
      <trkpt lat="44.34094" lon="2.64122">
        <ele>666.8115234</ele>
        <time>2014-04-05T07:26:16Z</time>
      </trkpt>
      <trkpt lat="44.34101" lon="2.64091">
        <ele>666.3308105</ele>
        <time>2014-04-05T07:26:24Z</time>
      </trkpt>
      <trkpt lat="44.34107" lon="2.64067">
        <ele>666.3308105</ele>
        <time>2014-04-05T07:26:30Z</time>
      </trkpt>
      <trkpt lat="44.34113" lon="2.64048">
        <ele>666.3308105</ele>
        <time>2014-04-05T07:26:35Z</time>
      </trkpt>
      <trkpt lat="44.34119" lon="2.64029">
        <ele>666.3308105</ele>
        <time>2014-04-05T07:26:40Z</time>
      </trkpt>
      <trkpt lat="44.34125" lon="2.64005">
        <ele>666.3308105</ele>
        <time>2014-04-05T07:26:46Z</time>
      </trkpt>
      <trkpt lat="44.34132" lon="2.63978">
        <ele>665.3696289</ele>
        <time>2014-04-05T07:26:53Z</time>
      </trkpt>
      <trkpt lat="44.34137" lon="2.63958">
        <ele>664.4082031</ele>
        <time>2014-04-05T07:26:58Z</time>
      </trkpt>
      <trkpt lat="44.3414" lon="2.63951">
        <ele>663.4470215</ele>
        <time>2014-04-05T07:27:00Z</time>
      </trkpt>
      <trkpt lat="44.34145" lon="2.63922">
        <ele>660.5629883</ele>
        <time>2014-04-05T07:27:07Z</time>
      </trkpt>
      <trkpt lat="44.3415" lon="2.63892">
        <ele>659.6018066</ele>
        <time>2014-04-05T07:27:15Z</time>
      </trkpt>
      <trkpt lat="44.34157" lon="2.63864">
        <ele>659.1210938</ele>
        <time>2014-04-05T07:27:22Z</time>
      </trkpt>
      <trkpt lat="44.34163" lon="2.63843">
        <ele>659.1210938</ele>
        <time>2014-04-05T07:27:28Z</time>
      </trkpt>
      <trkpt lat="44.34171" lon="2.63822">
        <ele>659.6018066</ele>
        <time>2014-04-05T07:27:34Z</time>
      </trkpt>
      <trkpt lat="44.34177" lon="2.63803">
        <ele>659.1210938</ele>
        <time>2014-04-05T07:27:39Z</time>
      </trkpt>
      <trkpt lat="44.34184" lon="2.63777">
        <ele>660.0822754</ele>
        <time>2014-04-05T07:27:46Z</time>
      </trkpt>
      <trkpt lat="44.34188" lon="2.63758">
        <ele>660.5629883</ele>
        <time>2014-04-05T07:27:51Z</time>
      </trkpt>
      <trkpt lat="44.34192" lon="2.63735">
        <ele>660.5629883</ele>
        <time>2014-04-05T07:27:57Z</time>
      </trkpt>
      <trkpt lat="44.34196" lon="2.63711">
        <ele>661.5244141</ele>
        <time>2014-04-05T07:28:03Z</time>
      </trkpt>
      <trkpt lat="44.34199" lon="2.63689">
        <ele>662.4855957</ele>
        <time>2014-04-05T07:28:09Z</time>
      </trkpt>
      <trkpt lat="44.34203" lon="2.6367">
        <ele>662.4855957</ele>
        <time>2014-04-05T07:28:14Z</time>
      </trkpt>
      <trkpt lat="44.3421" lon="2.63642">
        <ele>662.4855957</ele>
        <time>2014-04-05T07:28:21Z</time>
      </trkpt>
      <trkpt lat="44.34214" lon="2.63621">
        <ele>662.4855957</ele>
        <time>2014-04-05T07:28:26Z</time>
      </trkpt>
      <trkpt lat="44.34221" lon="2.63597">
        <ele>662.4855957</ele>
        <time>2014-04-05T07:28:32Z</time>
      </trkpt>
      <trkpt lat="44.34229" lon="2.63573">
        <ele>662.005127</ele>
        <time>2014-04-05T07:28:38Z</time>
      </trkpt>
      <trkpt lat="44.34237" lon="2.63556">
        <ele>661.0437012</ele>
        <time>2014-04-05T07:28:43Z</time>
      </trkpt>
      <trkpt lat="44.34247" lon="2.63534">
        <ele>661.0437012</ele>
        <time>2014-04-05T07:28:49Z</time>
      </trkpt>
      <trkpt lat="44.34258" lon="2.63512">
        <ele>659.6018066</ele>
        <time>2014-04-05T07:28:56Z</time>
      </trkpt>
      <trkpt lat="44.34267" lon="2.63496">
        <ele>658.1599121</ele>
        <time>2014-04-05T07:29:01Z</time>
      </trkpt>
      <trkpt lat="44.34277" lon="2.63479">
        <ele>655.2758789</ele>
        <time>2014-04-05T07:29:06Z</time>
      </trkpt>
      <trkpt lat="44.34284" lon="2.63467">
        <ele>653.3532715</ele>
        <time>2014-04-05T07:29:10Z</time>
      </trkpt>
      <trkpt lat="44.34293" lon="2.63449">
        <ele>650.949707</ele>
        <time>2014-04-05T07:29:15Z</time>
      </trkpt>
      <trkpt lat="44.34302" lon="2.63429">
        <ele>648.5463867</ele>
        <time>2014-04-05T07:29:21Z</time>
      </trkpt>
      <trkpt lat="44.34309" lon="2.63408">
        <ele>645.1818848</ele>
        <time>2014-04-05T07:29:27Z</time>
      </trkpt>
      <trkpt lat="44.34313" lon="2.6339">
        <ele>642.7788086</ele>
        <time>2014-04-05T07:29:32Z</time>
      </trkpt>
      <trkpt lat="44.34316" lon="2.63375">
        <ele>640.3754883</ele>
        <time>2014-04-05T07:29:36Z</time>
      </trkpt>
      <trkpt lat="44.34318" lon="2.63361">
        <ele>639.4140625</ele>
        <time>2014-04-05T07:29:40Z</time>
      </trkpt>
      <trkpt lat="44.34317" lon="2.63345">
        <ele>637.972168</ele>
        <time>2014-04-05T07:29:44Z</time>
      </trkpt>
      <trkpt lat="44.34317" lon="2.63325">
        <ele>637.4914551</ele>
        <time>2014-04-05T07:29:49Z</time>
      </trkpt>
      <trkpt lat="44.34315" lon="2.63301">
        <ele>638.4528809</ele>
        <time>2014-04-05T07:29:55Z</time>
      </trkpt>
      <trkpt lat="44.34313" lon="2.63283">
        <ele>638.4528809</ele>
        <time>2014-04-05T07:30:00Z</time>
      </trkpt>
      <trkpt lat="44.34306" lon="2.63267">
        <ele>638.9335938</ele>
        <time>2014-04-05T07:30:05Z</time>
      </trkpt>
      <trkpt lat="44.34296" lon="2.63251">
        <ele>639.4140625</ele>
        <time>2014-04-05T07:30:11Z</time>
      </trkpt>
      <trkpt lat="44.34286" lon="2.63242">
        <ele>639.8947754</ele>
        <time>2014-04-05T07:30:16Z</time>
      </trkpt>
      <trkpt lat="44.34274" lon="2.63229">
        <ele>641.3366699</ele>
        <time>2014-04-05T07:30:22Z</time>
      </trkpt>
      <trkpt lat="44.34264" lon="2.63217">
        <ele>642.2980957</ele>
        <time>2014-04-05T07:30:27Z</time>
      </trkpt>
      <trkpt lat="44.34254" lon="2.63206">
        <ele>642.7788086</ele>
        <time>2014-04-05T07:30:32Z</time>
      </trkpt>
      <trkpt lat="44.34242" lon="2.63196">
        <ele>643.7399902</ele>
        <time>2014-04-05T07:30:38Z</time>
      </trkpt>
      <trkpt lat="44.34231" lon="2.63187">
        <ele>644.7011719</ele>
        <time>2014-04-05T07:30:43Z</time>
      </trkpt>
      <trkpt lat="44.34218" lon="2.63177">
        <ele>645.1818848</ele>
        <time>2014-04-05T07:30:49Z</time>
      </trkpt>
      <trkpt lat="44.34204" lon="2.6317">
        <ele>647.1044922</ele>
        <time>2014-04-05T07:30:55Z</time>
      </trkpt>
      <trkpt lat="44.34191" lon="2.63164">
        <ele>648.065918</ele>
        <time>2014-04-05T07:31:00Z</time>
      </trkpt>
      <trkpt lat="44.34177" lon="2.63158">
        <ele>649.0270996</ele>
        <time>2014-04-05T07:31:06Z</time>
      </trkpt>
      <trkpt lat="44.34163" lon="2.63153">
        <ele>649.9885254</ele>
        <time>2014-04-05T07:31:12Z</time>
      </trkpt>
      <trkpt lat="44.34147" lon="2.63148">
        <ele>649.5078125</ele>
        <time>2014-04-05T07:31:19Z</time>
      </trkpt>
      <trkpt lat="44.34133" lon="2.63139">
        <ele>650.4692383</ele>
        <time>2014-04-05T07:31:25Z</time>
      </trkpt>
      <trkpt lat="44.34121" lon="2.6313">
        <ele>649.9885254</ele>
        <time>2014-04-05T07:31:31Z</time>
      </trkpt>
      <trkpt lat="44.34105" lon="2.63121">
        <ele>650.949707</ele>
        <time>2014-04-05T07:31:38Z</time>
      </trkpt>
      <trkpt lat="44.34091" lon="2.63112">
        <ele>650.949707</ele>
        <time>2014-04-05T07:31:44Z</time>
      </trkpt>
      <trkpt lat="44.34078" lon="2.63103">
        <ele>651.9111328</ele>
        <time>2014-04-05T07:31:50Z</time>
      </trkpt>
      <trkpt lat="44.34064" lon="2.63091">
        <ele>653.3532715</ele>
        <time>2014-04-05T07:31:56Z</time>
      </trkpt>
      <trkpt lat="44.3405" lon="2.63079">
        <ele>656.2370605</ele>
        <time>2014-04-05T07:32:02Z</time>
      </trkpt>
      <trkpt lat="44.34035" lon="2.63067">
        <ele>656.2370605</ele>
        <time>2014-04-05T07:32:09Z</time>
      </trkpt>
      <trkpt lat="44.34021" lon="2.63058">
        <ele>656.2370605</ele>
        <time>2014-04-05T07:32:15Z</time>
      </trkpt>
      <trkpt lat="44.34006" lon="2.63051">
        <ele>656.2370605</ele>
        <time>2014-04-05T07:32:21Z</time>
      </trkpt>
      <trkpt lat="44.33993" lon="2.63043">
        <ele>656.2370605</ele>
        <time>2014-04-05T07:32:27Z</time>
      </trkpt>
      <trkpt lat="44.33981" lon="2.63035">
        <ele>655.7565918</ele>
        <time>2014-04-05T07:32:32Z</time>
      </trkpt>
      <trkpt lat="44.33969" lon="2.63024">
        <ele>655.7565918</ele>
        <time>2014-04-05T07:32:38Z</time>
      </trkpt>
      <trkpt lat="44.33958" lon="2.63014">
        <ele>656.2370605</ele>
        <time>2014-04-05T07:32:43Z</time>
      </trkpt>
      <trkpt lat="44.33946" lon="2.63004">
        <ele>657.6791992</ele>
        <time>2014-04-05T07:32:48Z</time>
      </trkpt>
      <trkpt lat="44.33932" lon="2.62992">
        <ele>661.5244141</ele>
        <time>2014-04-05T07:32:54Z</time>
      </trkpt>
      <trkpt lat="44.33917" lon="2.6298">
        <ele>664.888916</ele>
        <time>2014-04-05T07:33:00Z</time>
      </trkpt>
      <trkpt lat="44.33909" lon="2.62971">
        <ele>664.888916</ele>
        <time>2014-04-05T07:33:04Z</time>
      </trkpt>
      <trkpt lat="44.33894" lon="2.62957">
        <ele>664.888916</ele>
        <time>2014-04-05T07:33:11Z</time>
      </trkpt>
      <trkpt lat="44.33882" lon="2.62946">
        <ele>664.888916</ele>
        <time>2014-04-05T07:33:17Z</time>
      </trkpt>
      <trkpt lat="44.33873" lon="2.62952">
        <ele>665.8503418</ele>
        <time>2014-04-05T07:33:22Z</time>
      </trkpt>
      <trkpt lat="44.33869" lon="2.62965">
        <ele>667.7727051</ele>
        <time>2014-04-05T07:33:26Z</time>
      </trkpt>
      <trkpt lat="44.33861" lon="2.62996">
        <ele>668.2536621</ele>
        <time>2014-04-05T07:33:34Z</time>
      </trkpt>
      <trkpt lat="44.33855" lon="2.63019">
        <ele>669.2150879</ele>
        <time>2014-04-05T07:33:40Z</time>
      </trkpt>
      <trkpt lat="44.33851" lon="2.63038">
        <ele>669.6958008</ele>
        <time>2014-04-05T07:33:45Z</time>
      </trkpt>
      <trkpt lat="44.33846" lon="2.63061">
        <ele>670.1762695</ele>
        <time>2014-04-05T07:33:51Z</time>
      </trkpt>
      <trkpt lat="44.3384" lon="2.63083">
        <ele>670.6569824</ele>
        <time>2014-04-05T07:33:57Z</time>
      </trkpt>
      <trkpt lat="44.33836" lon="2.63107">
        <ele>671.1376953</ele>
        <time>2014-04-05T07:34:03Z</time>
      </trkpt>
      <trkpt lat="44.33829" lon="2.63124">
        <ele>670.1762695</ele>
        <time>2014-04-05T07:34:08Z</time>
      </trkpt>
      <trkpt lat="44.33816" lon="2.63126">
        <ele>669.2150879</ele>
        <time>2014-04-05T07:34:12Z</time>
      </trkpt>
      <trkpt lat="44.33799" lon="2.63122">
        <ele>667.7727051</ele>
        <time>2014-04-05T07:34:17Z</time>
      </trkpt>
      <trkpt lat="44.33784" lon="2.63116">
        <ele>665.3696289</ele>
        <time>2014-04-05T07:34:22Z</time>
      </trkpt>
      <trkpt lat="44.33772" lon="2.63111">
        <ele>663.4470215</ele>
        <time>2014-04-05T07:34:26Z</time>
      </trkpt>
      <trkpt lat="44.33756" lon="2.63102">
        <ele>660.5629883</ele>
        <time>2014-04-05T07:34:32Z</time>
      </trkpt>
      <trkpt lat="44.33738" lon="2.63095">
        <ele>658.6403809</ele>
        <time>2014-04-05T07:34:38Z</time>
      </trkpt>
      <trkpt lat="44.33727" lon="2.6309">
        <ele>657.1984863</ele>
        <time>2014-04-05T07:34:42Z</time>
      </trkpt>
      <trkpt lat="44.33711" lon="2.63085">
        <ele>655.7565918</ele>
        <time>2014-04-05T07:34:47Z</time>
      </trkpt>
      <trkpt lat="44.33695" lon="2.6308">
        <ele>653.8339844</ele>
        <time>2014-04-05T07:34:52Z</time>
      </trkpt>
      <trkpt lat="44.3368" lon="2.63076">
        <ele>651.4304199</ele>
        <time>2014-04-05T07:34:57Z</time>
      </trkpt>
      <trkpt lat="44.33664" lon="2.63073">
        <ele>649.0270996</ele>
        <time>2014-04-05T07:35:03Z</time>
      </trkpt>
      <trkpt lat="44.33653" lon="2.63072">
        <ele>647.5852051</ele>
        <time>2014-04-05T07:35:07Z</time>
      </trkpt>
      <trkpt lat="44.33635" lon="2.63073">
        <ele>647.5852051</ele>
        <time>2014-04-05T07:35:13Z</time>
      </trkpt>
      <trkpt lat="44.33623" lon="2.63068">
        <ele>647.5852051</ele>
        <time>2014-04-05T07:35:17Z</time>
      </trkpt>
      <trkpt lat="44.33609" lon="2.63063">
        <ele>648.065918</ele>
        <time>2014-04-05T07:35:22Z</time>
      </trkpt>
      <trkpt lat="44.3359" lon="2.63056">
        <ele>648.5463867</ele>
        <time>2014-04-05T07:35:29Z</time>
      </trkpt>
      <trkpt lat="44.33581" lon="2.63043">
        <ele>647.1044922</ele>
        <time>2014-04-05T07:35:34Z</time>
      </trkpt>
      <trkpt lat="44.33577" lon="2.63027">
        <ele>645.1818848</ele>
        <time>2014-04-05T07:35:39Z</time>
      </trkpt>
      <trkpt lat="44.33575" lon="2.63003">
        <ele>644.2207031</ele>
        <time>2014-04-05T07:35:45Z</time>
      </trkpt>
      <trkpt lat="44.33574" lon="2.62984">
        <ele>644.7011719</ele>
        <time>2014-04-05T07:35:50Z</time>
      </trkpt>
      <trkpt lat="44.33573" lon="2.62962">
        <ele>646.1433105</ele>
        <time>2014-04-05T07:35:56Z</time>
      </trkpt>
      <trkpt lat="44.33569" lon="2.62945">
        <ele>647.1044922</ele>
        <time>2014-04-05T07:36:01Z</time>
      </trkpt>
      <trkpt lat="44.33567" lon="2.62934">
        <ele>647.5852051</ele>
        <time>2014-04-05T07:36:05Z</time>
      </trkpt>
      <trkpt lat="44.33568" lon="2.62924">
        <ele>647.5852051</ele>
        <time>2014-04-05T07:36:11Z</time>
      </trkpt>
      <trkpt lat="44.33571" lon="2.62923">
        <ele>648.065918</ele>
        <time>2014-04-05T07:36:14Z</time>
      </trkpt>
      <trkpt lat="44.33573" lon="2.62923">
        <ele>648.065918</ele>
        <time>2014-04-05T07:36:19Z</time>
      </trkpt>
      <trkpt lat="44.33582" lon="2.62919">
        <ele>648.5463867</ele>
        <time>2014-04-05T07:36:26Z</time>
      </trkpt>
      <trkpt lat="44.33584" lon="2.62919">
        <ele>648.5463867</ele>
        <time>2014-04-05T07:36:28Z</time>
      </trkpt>
      <trkpt lat="44.33584" lon="2.6292">
        <ele>650.949707</ele>
        <time>2014-04-05T07:36:39Z</time>
      </trkpt>
      <trkpt lat="44.33582" lon="2.62919">
        <ele>653.8339844</ele>
        <time>2014-04-05T07:36:49Z</time>
      </trkpt>
      <trkpt lat="44.33583" lon="2.62919">
        <ele>653.8339844</ele>
        <time>2014-04-05T07:37:04Z</time>
      </trkpt>
      <trkpt lat="44.33583" lon="2.62916">
        <ele>652.8725586</ele>
        <time>2014-04-05T07:37:18Z</time>
      </trkpt>
      <trkpt lat="44.33578" lon="2.62908">
        <ele>659.6018066</ele>
        <time>2014-04-05T07:37:31Z</time>
      </trkpt>
      <trkpt lat="44.33579" lon="2.62911">
        <ele>655.2758789</ele>
        <time>2014-04-05T07:37:51Z</time>
      </trkpt>
      <trkpt lat="44.3358" lon="2.62912">
        <ele>652.8725586</ele>
        <time>2014-04-05T07:37:53Z</time>
      </trkpt>
    </trkseg>
  </trk>
</gpx>